CRL942 SBGR-LFPG
Flight info
| Callsign | CRL942 |
|---|---|
| Flight time | N/A |
| Altitude | 33000 |
| Route | NUXEL UZ23 ILPIR UZ72 EDNES UN866 CRUDE/N0480F350 UN866 DEKON/N0477F340 UN866 AMDOL/N0475F350 UN866 TENPA N866 YORGI/N0466F370 N866 GOMER/N0466F360 DCT BRICK DCT GURKA DCT KONBA UN866 BEXAL/N0391F240 UN872 ESP/N0443F320 DCT MAGUM/N0389F240 UN745 RIVRO N745 TOSDI/N0455F380 N745 ZMR N873 DELOG DCT PEXOD DCT DIDIG/N0446F340 UP87 MOKOR UN741 NTS/N0427F300 UN741 KEPER |
| Aircraft | A339/H-SADE1E2E3GHIJ3J5M1P2RWXY/LB2D1 |
Departure
| Time | 2026-04-30 04:30 |
|---|---|
| Airport | São Paulo/Guarulhos–Governor André Franco Montoro International Airport (SBGR) |
Arrival
| Time | N/A |
|---|---|
| Airport | Charles de Gaulle International Airport (LFPG) |
| Time | Latitude | Longitude | Altitude | Speed | Heading |
|---|---|---|---|---|---|
| 2026-04-30 03:39 | -23.42582 | -46.47319 | 2450 ft | 0 kts | 252° |
| 2026-04-30 04:13 | -23.42581 | -46.47313 | 2449 ft | 2 kts | 252° |
| 2026-04-30 04:13 | -23.42576 | -46.47298 | 2449 ft | 2 kts | 252° |
| 2026-04-30 04:14 | -23.42572 | -46.47282 | 2449 ft | 2 kts | 252° |
| 2026-04-30 04:14 | -23.42567 | -46.47267 | 2449 ft | 0 kts | 252° |
| 2026-04-30 04:14 | -23.42564 | -46.47255 | 2449 ft | 2 kts | 242° |
| 2026-04-30 04:14 | -23.42554 | -46.47241 | 2449 ft | 2 kts | 221° |
| 2026-04-30 04:15 | -23.42541 | -46.47231 | 2450 ft | 2 kts | 204° |
| 2026-04-30 04:15 | -23.42526 | -46.47226 | 2450 ft | 2 kts | 186° |
| 2026-04-30 04:15 | -23.42511 | -46.47226 | 2449 ft | 2 kts | 168° |
| 2026-04-30 04:15 | -23.42504 | -46.47228 | 2449 ft | 1 kts | 162° |
| 2026-04-30 04:16 | -23.42502 | -46.47229 | 2449 ft | 0 kts | 163° |
| 2026-04-30 04:21 | -23.42505 | -46.47228 | 2449 ft | 1 kts | 162° |
| 2026-04-30 04:21 | -23.42520 | -46.47223 | 2449 ft | 3 kts | 164° |
| 2026-04-30 04:21 | -23.42551 | -46.47213 | 2449 ft | 5 kts | 164° |
| 2026-04-30 04:21 | -23.42589 | -46.47201 | 2449 ft | 6 kts | 163° |
| 2026-04-30 04:22 | -23.42638 | -46.47186 | 2449 ft | 7 kts | 163° |
| 2026-04-30 04:22 | -23.42692 | -46.47169 | 2450 ft | 7 kts | 163° |
| 2026-04-30 04:22 | -23.42742 | -46.47153 | 2451 ft | 7 kts | 163° |
| 2026-04-30 04:22 | -23.42790 | -46.47138 | 2452 ft | 6 kts | 163° |
| 2026-04-30 04:23 | -23.42827 | -46.47126 | 2452 ft | 5 kts | 163° |
| 2026-04-30 04:23 | -23.42861 | -46.47115 | 2453 ft | 4 kts | 163° |
| 2026-04-30 04:23 | -23.42892 | -46.47111 | 2454 ft | 5 kts | 190° |
| 2026-04-30 04:23 | -23.42933 | -46.47151 | 2454 ft | 11 kts | 238° |
| 2026-04-30 04:24 | -23.42962 | -46.47242 | 2455 ft | 13 kts | 254° |
| 2026-04-30 04:24 | -23.42987 | -46.47338 | 2455 ft | 12 kts | 254° |
| 2026-04-30 04:24 | -23.43012 | -46.47430 | 2456 ft | 12 kts | 252° |
| 2026-04-30 04:24 | -23.43038 | -46.47524 | 2456 ft | 13 kts | 253° |
| 2026-04-30 04:25 | -23.43064 | -46.47620 | 2456 ft | 12 kts | 253° |
| 2026-04-30 04:25 | -23.43089 | -46.47711 | 2457 ft | 12 kts | 253° |
| 2026-04-30 04:25 | -23.43114 | -46.47803 | 2456 ft | 13 kts | 253° |
| 2026-04-30 04:25 | -23.43140 | -46.47901 | 2455 ft | 13 kts | 253° |
| 2026-04-30 04:26 | -23.43167 | -46.48001 | 2455 ft | 13 kts | 253° |
| 2026-04-30 04:26 | -23.43192 | -46.48094 | 2456 ft | 12 kts | 253° |
| 2026-04-30 04:26 | -23.43216 | -46.48185 | 2456 ft | 12 kts | 253° |
| 2026-04-30 04:26 | -23.43240 | -46.48273 | 2456 ft | 12 kts | 253° |
| 2026-04-30 04:27 | -23.43272 | -46.48344 | 2456 ft | 9 kts | 213° |
| 2026-04-30 04:27 | -23.43336 | -46.48354 | 2457 ft | 8 kts | 175° |
| 2026-04-30 04:27 | -23.43383 | -46.48341 | 2458 ft | 6 kts | 164° |
| 2026-04-30 04:27 | -23.43410 | -46.48318 | 2459 ft | 4 kts | 119° |
| 2026-04-30 04:28 | -23.43414 | -46.48289 | 2460 ft | 3 kts | 86° |
| 2026-04-30 04:28 | -23.43410 | -46.48264 | 2460 ft | 0 kts | 76° |
| 2026-04-30 04:29 | -23.43405 | -46.48241 | 2460 ft | 7 kts | 75° |
| 2026-04-30 04:29 | -23.43334 | -46.47974 | 2461 ft | 65 kts | 73° |
| 2026-04-30 04:29 | -23.43150 | -46.47313 | 2461 ft | 117 kts | 73° |
| 2026-04-30 04:30 | -23.42869 | -46.46287 | 2457 ft | 162 kts | 73° |
| 2026-04-30 04:30 | -23.42519 | -46.44975 | 2477 ft | 197 kts | 73° |
| 2026-04-30 04:30 | -23.42120 | -46.43547 | 3020 ft | 194 kts | 71° |
| 2026-04-30 04:30 | -23.41707 | -46.42154 | 3574 ft | 194 kts | 71° |
| 2026-04-30 04:31 | -23.41291 | -46.40764 | 4131 ft | 195 kts | 71° |
| 2026-04-30 04:31 | -23.40868 | -46.39317 | 4498 ft | 207 kts | 71° |
| 2026-04-30 04:31 | -23.40429 | -46.37799 | 4714 ft | 217 kts | 72° |
| 2026-04-30 04:31 | -23.39879 | -46.36219 | 4926 ft | 228 kts | 63° |
| 2026-04-30 04:32 | -23.39080 | -46.34665 | 5148 ft | 240 kts | 57° |
| 2026-04-30 04:32 | -23.38170 | -46.33102 | 5365 ft | 252 kts | 57° |
| 2026-04-30 04:32 | -23.37201 | -46.31454 | 5577 ft | 263 kts | 57° |
| 2026-04-30 04:32 | -23.36196 | -46.29734 | 5794 ft | 275 kts | 57° |
| 2026-04-30 04:33 | -23.35158 | -46.27949 | 6061 ft | 284 kts | 57° |
| 2026-04-30 04:33 | -23.34109 | -46.26138 | 6522 ft | 286 kts | 57° |
| 2026-04-30 04:33 | -23.33051 | -46.24311 | 6970 ft | 286 kts | 58° |
| 2026-04-30 04:33 | -23.31979 | -46.22465 | 7290 ft | 290 kts | 57° |
| 2026-04-30 04:34 | -23.30904 | -46.20615 | 7732 ft | 291 kts | 58° |
| 2026-04-30 04:34 | -23.29820 | -46.18742 | 8229 ft | 291 kts | 57° |
| 2026-04-30 04:34 | -23.28725 | -46.16858 | 8734 ft | 294 kts | 57° |
| 2026-04-30 04:34 | -23.27648 | -46.14999 | 9304 ft | 293 kts | 58° |
| 2026-04-30 04:35 | -23.26562 | -46.13129 | 9795 ft | 294 kts | 57° |
| 2026-04-30 04:35 | -23.25456 | -46.11228 | 10226 ft | 298 kts | 58° |
| 2026-04-30 04:35 | -23.24330 | -46.09291 | 10456 ft | 309 kts | 58° |
| 2026-04-30 04:35 | -23.23161 | -46.07278 | 10627 ft | 319 kts | 57° |
| 2026-04-30 04:36 | -23.21892 | -46.05259 | 10769 ft | 330 kts | 47° |
| 2026-04-30 04:36 | -23.20104 | -46.03645 | 10920 ft | 338 kts | 28° |
| 2026-04-30 04:36 | -23.17953 | -46.02638 | 11070 ft | 345 kts | 17° |
| 2026-04-30 04:36 | -23.15638 | -46.01779 | 11246 ft | 356 kts | 16° |
| 2026-04-30 04:37 | -23.13236 | -46.01008 | 11442 ft | 364 kts | 11° |
| 2026-04-30 04:37 | -23.10727 | -46.00444 | 11740 ft | 366 kts | 6° |
| 2026-04-30 04:37 | -23.08171 | -46.00089 | 12118 ft | 368 kts | 4° |
| 2026-04-30 04:37 | -23.05623 | -45.99782 | 12527 ft | 369 kts | 4° |
| 2026-04-30 04:38 | -23.03068 | -45.99478 | 12887 ft | 372 kts | 4° |
| 2026-04-30 04:38 | -23.00481 | -45.99171 | 13226 ft | 376 kts | 4° |
| 2026-04-30 04:38 | -22.97868 | -45.98855 | 13588 ft | 378 kts | 4° |
| 2026-04-30 04:38 | -22.95219 | -45.98533 | 13967 ft | 381 kts | 4° |
| 2026-04-30 04:39 | -22.92577 | -45.98211 | 14348 ft | 382 kts | 3° |
| 2026-04-30 04:39 | -22.89916 | -45.97864 | 14709 ft | 385 kts | 5° |
| 2026-04-30 04:39 | -22.87268 | -45.97355 | 15106 ft | 387 kts | 8° |
| 2026-04-30 04:39 | -22.84633 | -45.96694 | 15478 ft | 389 kts | 9° |
| 2026-04-30 04:40 | -22.82016 | -45.96018 | 15831 ft | 390 kts | 9° |
| 2026-04-30 04:40 | -22.79355 | -45.95330 | 16164 ft | 391 kts | 9° |
| 2026-04-30 04:40 | -22.76706 | -45.94644 | 16502 ft | 393 kts | 9° |
| 2026-04-30 04:40 | -22.74033 | -45.93953 | 16835 ft | 394 kts | 9° |
| 2026-04-30 04:41 | -22.71355 | -45.93261 | 17156 ft | 395 kts | 9° |
| 2026-04-30 04:41 | -22.68684 | -45.92571 | 17450 ft | 396 kts | 9° |
| 2026-04-30 04:41 | -22.65988 | -45.91877 | 17750 ft | 399 kts | 9° |
| 2026-04-30 04:41 | -22.63271 | -45.91179 | 18073 ft | 401 kts | 9° |
| 2026-04-30 04:42 | -22.60523 | -45.90474 | 18423 ft | 402 kts | 9° |
| 2026-04-30 04:42 | -22.57803 | -45.89774 | 18798 ft | 403 kts | 9° |
| 2026-04-30 04:42 | -22.55057 | -45.89066 | 19155 ft | 405 kts | 9° |
| 2026-04-30 04:42 | -22.52332 | -45.88366 | 19503 ft | 406 kts | 8° |
| 2026-04-30 04:43 | -22.49580 | -45.87658 | 19849 ft | 407 kts | 8° |
| 2026-04-30 04:43 | -22.46798 | -45.86943 | 20207 ft | 407 kts | 8° |
| 2026-04-30 04:43 | -22.44036 | -45.86234 | 20550 ft | 408 kts | 8° |
| 2026-04-30 04:43 | -22.41268 | -45.85523 | 20890 ft | 409 kts | 8° |
| 2026-04-30 04:44 | -22.38495 | -45.84811 | 21225 ft | 410 kts | 8° |
| 2026-04-30 04:44 | -22.35677 | -45.84089 | 21545 ft | 412 kts | 8° |
| 2026-04-30 04:44 | -22.32913 | -45.83380 | 21873 ft | 412 kts | 8° |
| 2026-04-30 04:44 | -22.30141 | -45.82495 | 22174 ft | 419 kts | 16° |
| 2026-04-30 04:45 | -22.27459 | -45.81140 | 22477 ft | 426 kts | 24° |
| 2026-04-30 04:45 | -22.24985 | -45.79374 | 22761 ft | 433 kts | 32° |
| 2026-04-30 04:45 | -22.22582 | -45.77330 | 23062 ft | 435 kts | 34° |
| 2026-04-30 04:45 | -22.20241 | -45.75293 | 23356 ft | 437 kts | 34° |
| 2026-04-30 04:46 | -22.17862 | -45.73215 | 23614 ft | 439 kts | 34° |
| 2026-04-30 04:46 | -22.15476 | -45.71138 | 23866 ft | 441 kts | 34° |
| 2026-04-30 04:46 | -22.13106 | -45.69083 | 24132 ft | 442 kts | 34° |
| 2026-04-30 04:46 | -22.10700 | -45.67002 | 24398 ft | 444 kts | 34° |
| 2026-04-30 04:47 | -22.08257 | -45.64890 | 24634 ft | 446 kts | 34° |
| 2026-04-30 04:47 | -22.05856 | -45.62819 | 24877 ft | 448 kts | 34° |
| 2026-04-30 04:47 | -22.03409 | -45.60710 | 25098 ft | 450 kts | 34° |
| 2026-04-30 04:47 | -22.00962 | -45.58602 | 25326 ft | 452 kts | 34° |
| 2026-04-30 04:48 | -21.98495 | -45.56478 | 25587 ft | 453 kts | 34° |
| 2026-04-30 04:48 | -21.96027 | -45.54355 | 25832 ft | 455 kts | 34° |
| 2026-04-30 04:48 | -21.93531 | -45.52209 | 26066 ft | 457 kts | 34° |
| 2026-04-30 04:48 | -21.91047 | -45.50073 | 26279 ft | 459 kts | 34° |
| 2026-04-30 04:49 | -21.88538 | -45.47916 | 26503 ft | 461 kts | 34° |
| 2026-04-30 04:49 | -21.86033 | -45.45764 | 26733 ft | 462 kts | 34° |
| 2026-04-30 04:49 | -21.83495 | -45.43586 | 26956 ft | 464 kts | 34° |
| 2026-04-30 04:49 | -21.80933 | -45.41387 | 27185 ft | 465 kts | 34° |
| 2026-04-30 04:50 | -21.78409 | -45.39223 | 27389 ft | 467 kts | 34° |
| 2026-04-30 04:50 | -21.75860 | -45.37038 | 27602 ft | 468 kts | 34° |
| 2026-04-30 04:50 | -21.73311 | -45.34853 | 27810 ft | 470 kts | 34° |
| 2026-04-30 04:50 | -21.70743 | -45.32653 | 28007 ft | 472 kts | 34° |
| 2026-04-30 04:51 | -21.68165 | -45.30445 | 28209 ft | 473 kts | 34° |
| 2026-04-30 04:51 | -21.65570 | -45.28224 | 28418 ft | 474 kts | 34° |
| 2026-04-30 04:51 | -21.62986 | -45.26014 | 28620 ft | 475 kts | 34° |
| 2026-04-30 04:51 | -21.60396 | -45.23800 | 28824 ft | 476 kts | 34° |
| 2026-04-30 04:52 | -21.57805 | -45.21585 | 29016 ft | 478 kts | 34° |
| 2026-04-30 04:52 | -21.55187 | -45.19349 | 29184 ft | 480 kts | 34° |
| 2026-04-30 04:52 | -21.52561 | -45.17109 | 29362 ft | 481 kts | 34° |
| 2026-04-30 04:52 | -21.49928 | -45.14861 | 29546 ft | 483 kts | 34° |
| 2026-04-30 04:53 | -21.47300 | -45.12619 | 29771 ft | 483 kts | 34° |
| 2026-04-30 04:53 | -21.44679 | -45.10384 | 30014 ft | 483 kts | 34° |
| 2026-04-30 04:53 | -21.42054 | -45.08147 | 30278 ft | 482 kts | 34° |
| 2026-04-30 04:53 | -21.39411 | -45.05895 | 30545 ft | 482 kts | 34° |
| 2026-04-30 04:54 | -21.36787 | -45.03662 | 30799 ft | 481 kts | 34° |
| 2026-04-30 04:54 | -21.34178 | -45.01442 | 31032 ft | 481 kts | 34° |
| 2026-04-30 04:54 | -21.31553 | -44.99210 | 31255 ft | 481 kts | 35° |
| 2026-04-30 04:54 | -21.28933 | -44.96984 | 31462 ft | 481 kts | 35° |
| 2026-04-30 04:55 | -21.26314 | -44.94757 | 31621 ft | 482 kts | 35° |
| 2026-04-30 04:55 | -21.23688 | -44.92526 | 31786 ft | 483 kts | 35° |
| 2026-04-30 04:55 | -21.21020 | -44.90261 | 31935 ft | 484 kts | 35° |
| 2026-04-30 04:55 | -21.18375 | -44.88018 | 32088 ft | 485 kts | 35° |
| 2026-04-30 04:56 | -21.15737 | -44.85781 | 32259 ft | 486 kts | 35° |
| 2026-04-30 04:56 | -21.13096 | -44.83541 | 32429 ft | 486 kts | 35° |
| 2026-04-30 04:56 | -21.10424 | -44.81277 | 32601 ft | 487 kts | 35° |
| 2026-04-30 04:56 | -21.07776 | -44.79035 | 32774 ft | 487 kts | 35° |
| 2026-04-30 04:57 | -21.05107 | -44.76802 | 32922 ft | 487 kts | 33° |
| 2026-04-30 04:57 | -21.02371 | -44.74679 | 33056 ft | 487 kts | 32° |
| 2026-04-30 04:57 | -20.99584 | -44.72546 | 33168 ft | 489 kts | 32° |
| 2026-04-30 04:58 | -20.94025 | -44.68305 | 33171 ft | 490 kts | 32° |
| 2026-04-30 04:58 | -20.88503 | -44.64091 | 33174 ft | 489 kts | 32° |
| 2026-04-30 04:59 | -20.82892 | -44.59813 | 33178 ft | 489 kts | 32° |
| 2026-04-30 04:59 | -20.77321 | -44.55567 | 33186 ft | 489 kts | 32° |
| 2026-04-30 05:00 | -20.71759 | -44.51330 | 33193 ft | 489 kts | 32° |
| 2026-04-30 05:00 | -20.66224 | -44.47116 | 33190 ft | 489 kts | 32° |
| 2026-04-30 05:01 | -20.60671 | -44.42892 | 33179 ft | 489 kts | 33° |
| 2026-04-30 05:01 | -20.55139 | -44.38691 | 33173 ft | 488 kts | 33° |
| 2026-04-30 05:02 | -20.49613 | -44.34493 | 33166 ft | 488 kts | 32° |
| 2026-04-30 05:02 | -20.44077 | -44.30295 | 33167 ft | 489 kts | 32° |
| 2026-04-30 05:03 | -20.38567 | -44.25967 | 33169 ft | 489 kts | 34° |
| 2026-04-30 05:03 | -20.33123 | -44.21622 | 33170 ft | 490 kts | 34° |
| 2026-04-30 05:04 | -20.27658 | -44.17281 | 33174 ft | 489 kts | 34° |
| 2026-04-30 05:04 | -20.22148 | -44.12915 | 33175 ft | 489 kts | 34° |
| 2026-04-30 05:05 | -20.16675 | -44.08585 | 33178 ft | 489 kts | 34° |
| 2026-04-30 05:05 | -20.11229 | -44.04282 | 33185 ft | 488 kts | 34° |
| 2026-04-30 05:06 | -20.03024 | -43.97813 | 33194 ft | 489 kts | 34° |
| 2026-04-30 05:06 | -19.97560 | -43.93514 | 33195 ft | 489 kts | 34° |
| 2026-04-30 05:07 | -19.92075 | -43.89201 | 33191 ft | 488 kts | 34° |
| 2026-04-30 05:07 | -19.86613 | -43.84911 | 33183 ft | 487 kts | 34° |
| 2026-04-30 05:08 | -19.81029 | -43.80795 | 33177 ft | 487 kts | 32° |
| 2026-04-30 05:08 | -19.75396 | -43.76717 | 33171 ft | 487 kts | 32° |
| 2026-04-30 05:09 | -19.69792 | -43.72662 | 33166 ft | 487 kts | 32° |
| 2026-04-30 05:09 | -19.64164 | -43.68593 | 33170 ft | 487 kts | 32° |
| 2026-04-30 05:10 | -19.58568 | -43.64550 | 33169 ft | 486 kts | 32° |
| 2026-04-30 05:10 | -19.52976 | -43.60512 | 33169 ft | 486 kts | 32° |
| 2026-04-30 05:11 | -19.47411 | -43.56496 | 33173 ft | 486 kts | 32° |
| 2026-04-30 05:11 | -19.41811 | -43.52458 | 33180 ft | 487 kts | 32° |
| 2026-04-30 05:12 | -19.36185 | -43.48470 | 33179 ft | 486 kts | 30° |
| 2026-04-30 05:12 | -19.30250 | -43.45003 | 33173 ft | 484 kts | 24° |
| 2026-04-30 05:13 | -19.24067 | -43.42265 | 33160 ft | 481 kts | 18° |
| 2026-04-30 05:13 | -19.17715 | -43.40024 | 33150 ft | 481 kts | 16° |
| 2026-04-30 05:14 | -19.11351 | -43.37805 | 33140 ft | 481 kts | 17° |
| 2026-04-30 05:14 | -19.04993 | -43.35582 | 33133 ft | 482 kts | 17° |
| 2026-04-30 05:15 | -18.98585 | -43.33342 | 33128 ft | 481 kts | 16° |
| 2026-04-30 05:15 | -18.92215 | -43.31116 | 33131 ft | 481 kts | 17° |
| 2026-04-30 05:16 | -18.85852 | -43.28892 | 33132 ft | 481 kts | 16° |
| 2026-04-30 05:16 | -18.79452 | -43.26660 | 33135 ft | 482 kts | 17° |
| 2026-04-30 05:17 | -18.73093 | -43.24445 | 33139 ft | 482 kts | 17° |
| 2026-04-30 05:17 | -18.66693 | -43.22227 | 33147 ft | 482 kts | 16° |
| 2026-04-30 05:18 | -18.60257 | -43.20110 | 33152 ft | 482 kts | 16° |
| 2026-04-30 05:18 | -18.53813 | -43.18005 | 33156 ft | 482 kts | 16° |
| 2026-04-30 05:19 | -18.47413 | -43.15907 | 33161 ft | 482 kts | 16° |
| 2026-04-30 05:19 | -18.41012 | -43.13806 | 33162 ft | 482 kts | 16° |
| 2026-04-30 05:20 | -18.34676 | -43.11470 | 33162 ft | 484 kts | 19° |
| 2026-04-30 05:20 | -18.28324 | -43.08971 | 33159 ft | 484 kts | 19° |
| 2026-04-30 05:21 | -18.22030 | -43.06495 | 33158 ft | 484 kts | 19° |
| 2026-04-30 05:21 | -18.15690 | -43.04004 | 33158 ft | 483 kts | 19° |
| 2026-04-30 05:22 | -18.09397 | -43.01536 | 33160 ft | 483 kts | 19° |
| 2026-04-30 05:22 | -18.03104 | -42.99070 | 33163 ft | 483 kts | 19° |
| 2026-04-30 05:23 | -17.96801 | -42.96602 | 33168 ft | 484 kts | 20° |
| 2026-04-30 05:23 | -17.90446 | -42.94116 | 33168 ft | 485 kts | 20° |
| 2026-04-30 05:24 | -17.84162 | -42.91659 | 33166 ft | 483 kts | 20° |
| 2026-04-30 05:24 | -17.77817 | -42.89178 | 33163 ft | 483 kts | 20° |
| 2026-04-30 05:25 | -17.71504 | -42.86715 | 33157 ft | 485 kts | 20° |
| 2026-04-30 05:25 | -17.65179 | -42.84246 | 33150 ft | 486 kts | 20° |
| 2026-04-30 05:26 | -17.58836 | -42.81775 | 33149 ft | 486 kts | 20° |
| 2026-04-30 05:26 | -17.52459 | -42.79290 | 33138 ft | 486 kts | 20° |
| 2026-04-30 05:27 | -17.46120 | -42.76825 | 33128 ft | 486 kts | 20° |
| 2026-04-30 05:27 | -17.39770 | -42.74357 | 33121 ft | 486 kts | 21° |
| 2026-04-30 05:28 | -17.33434 | -42.71896 | 33120 ft | 484 kts | 21° |
| 2026-04-30 05:28 | -17.27125 | -42.69447 | 33116 ft | 483 kts | 21° |
| 2026-04-30 05:29 | -17.20789 | -42.66989 | 33116 ft | 483 kts | 21° |
| 2026-04-30 05:29 | -17.14475 | -42.64543 | 33116 ft | 484 kts | 21° |
| 2026-04-30 05:30 | -17.08160 | -42.62097 | 33110 ft | 484 kts | 21° |
| 2026-04-30 05:30 | -17.01804 | -42.59639 | 33109 ft | 484 kts | 21° |
| 2026-04-30 05:31 | -16.95500 | -42.57201 | 33107 ft | 484 kts | 21° |
| 2026-04-30 05:31 | -16.89173 | -42.54756 | 33108 ft | 484 kts | 21° |
| 2026-04-30 05:32 | -16.82831 | -42.52309 | 33109 ft | 483 kts | 21° |
| 2026-04-30 05:32 | -16.76539 | -42.49882 | 33110 ft | 483 kts | 21° |
| 2026-04-30 05:33 | -16.70224 | -42.47446 | 33111 ft | 483 kts | 21° |
| 2026-04-30 05:33 | -16.63903 | -42.45012 | 33109 ft | 484 kts | 21° |
| 2026-04-30 05:34 | -16.57566 | -42.42567 | 33108 ft | 484 kts | 21° |
| 2026-04-30 05:34 | -16.51254 | -42.40136 | 33107 ft | 483 kts | 21° |
| 2026-04-30 05:35 | -16.44946 | -42.37711 | 33107 ft | 482 kts | 21° |
| 2026-04-30 05:35 | -16.38647 | -42.35290 | 33108 ft | 482 kts | 21° |
| 2026-04-30 05:36 | -16.32337 | -42.32868 | 33110 ft | 482 kts | 21° |
| 2026-04-30 05:36 | -16.26039 | -42.30450 | 33110 ft | 483 kts | 21° |
| 2026-04-30 05:37 | -16.19707 | -42.28023 | 33110 ft | 483 kts | 21° |
| 2026-04-30 05:37 | -16.13493 | -42.25364 | 33109 ft | 482 kts | 26° |
| 2026-04-30 05:38 | -16.07460 | -42.22313 | 33109 ft | 481 kts | 27° |
| 2026-04-30 05:38 | -16.01450 | -42.19259 | 33112 ft | 481 kts | 27° |
| 2026-04-30 05:39 | -15.95445 | -42.16210 | 33119 ft | 480 kts | 27° |
| 2026-04-30 05:39 | -15.89437 | -42.13165 | 33126 ft | 480 kts | 27° |
| 2026-04-30 05:40 | -15.83423 | -42.10123 | 33131 ft | 480 kts | 27° |
| 2026-04-30 05:40 | -15.77383 | -42.07067 | 33136 ft | 481 kts | 27° |
| 2026-04-30 05:41 | -15.71369 | -42.04028 | 33137 ft | 480 kts | 27° |
| 2026-04-30 05:41 | -15.65367 | -42.00996 | 33132 ft | 480 kts | 27° |
| 2026-04-30 05:42 | -15.59324 | -41.97945 | 33125 ft | 479 kts | 27° |
| 2026-04-30 05:42 | -15.53338 | -41.94923 | 33121 ft | 479 kts | 27° |
| 2026-04-30 05:43 | -15.47330 | -41.91895 | 33115 ft | 480 kts | 27° |
| 2026-04-30 05:43 | -15.41332 | -41.88872 | 33120 ft | 480 kts | 27° |
| 2026-04-30 05:44 | -15.35312 | -41.85841 | 33127 ft | 480 kts | 27° |
| 2026-04-30 05:44 | -15.29307 | -41.82819 | 33132 ft | 479 kts | 27° |
| 2026-04-30 05:45 | -15.23268 | -41.79783 | 33139 ft | 479 kts | 27° |
| 2026-04-30 05:45 | -15.17285 | -41.76775 | 33137 ft | 478 kts | 27° |
| 2026-04-30 05:46 | -15.11316 | -41.73775 | 33133 ft | 478 kts | 27° |
| 2026-04-30 05:46 | -15.05292 | -41.70752 | 33128 ft | 478 kts | 27° |
| 2026-04-30 05:47 | -14.99296 | -41.67745 | 33127 ft | 479 kts | 27° |
| 2026-04-30 05:47 | -14.93332 | -41.64756 | 33121 ft | 478 kts | 27° |
| 2026-04-30 05:48 | -14.87328 | -41.61749 | 33123 ft | 477 kts | 27° |
| 2026-04-30 05:48 | -14.81336 | -41.58748 | 33118 ft | 477 kts | 28° |
| 2026-04-30 05:49 | -14.75347 | -41.55750 | 33117 ft | 477 kts | 27° |
| 2026-04-30 05:49 | -14.69390 | -41.52770 | 33116 ft | 477 kts | 28° |
| 2026-04-30 05:50 | -14.63402 | -41.49778 | 33109 ft | 477 kts | 28° |
| 2026-04-30 05:50 | -14.57393 | -41.46777 | 33108 ft | 478 kts | 28° |
| 2026-04-30 05:51 | -14.51386 | -41.43779 | 33103 ft | 477 kts | 28° |
| 2026-04-30 05:51 | -14.45426 | -41.40806 | 33094 ft | 477 kts | 28° |
| 2026-04-30 05:52 | -14.39429 | -41.37814 | 33087 ft | 476 kts | 28° |
| 2026-04-30 05:52 | -14.33476 | -41.34848 | 33082 ft | 476 kts | 27° |
| 2026-04-30 05:53 | -14.27497 | -41.31871 | 33076 ft | 476 kts | 27° |
| 2026-04-30 05:53 | -14.21518 | -41.28895 | 33073 ft | 476 kts | 28° |
| 2026-04-30 05:54 | -14.15545 | -41.25925 | 33068 ft | 476 kts | 28° |
| 2026-04-30 05:54 | -14.09551 | -41.22943 | 33070 ft | 477 kts | 28° |
| 2026-04-30 05:55 | -14.03555 | -41.19963 | 33066 ft | 477 kts | 28° |
| 2026-04-30 05:55 | -13.97595 | -41.17002 | 33061 ft | 477 kts | 28° |
| 2026-04-30 05:56 | -13.91590 | -41.14024 | 33063 ft | 476 kts | 28° |
| 2026-04-30 05:56 | -13.85602 | -41.11054 | 33062 ft | 476 kts | 28° |
| 2026-04-30 05:57 | -13.79622 | -41.08092 | 33058 ft | 476 kts | 28° |
| 2026-04-30 05:57 | -13.73648 | -41.05132 | 33058 ft | 477 kts | 28° |
| 2026-04-30 05:58 | -13.67659 | -41.02166 | 33059 ft | 478 kts | 28° |
| 2026-04-30 05:58 | -13.61660 | -40.99198 | 33055 ft | 478 kts | 28° |
| 2026-04-30 05:59 | -13.55670 | -40.96238 | 33059 ft | 478 kts | 28° |
| 2026-04-30 05:59 | -13.49670 | -40.93274 | 33063 ft | 478 kts | 28° |
| 2026-04-30 06:00 | -13.43658 | -40.90304 | 33063 ft | 477 kts | 28° |
| 2026-04-30 06:00 | -13.37669 | -40.87347 | 33062 ft | 477 kts | 28° |
| 2026-04-30 06:01 | -13.31658 | -40.84381 | 33063 ft | 478 kts | 28° |
| 2026-04-30 06:01 | -13.25632 | -40.81409 | 33058 ft | 479 kts | 28° |
| 2026-04-30 06:02 | -13.19646 | -40.78460 | 33057 ft | 479 kts | 28° |
| 2026-04-30 06:02 | -13.13633 | -40.75498 | 33052 ft | 478 kts | 28° |
| 2026-04-30 06:03 | -13.07605 | -40.72530 | 33060 ft | 479 kts | 28° |
| 2026-04-30 06:03 | -13.01580 | -40.69564 | 33060 ft | 480 kts | 28° |
| 2026-04-30 06:04 | -12.95539 | -40.66591 | 33060 ft | 480 kts | 28° |
| 2026-04-30 06:05 | -12.86498 | -40.62145 | 33063 ft | 480 kts | 28° |
| 2026-04-30 06:05 | -12.80442 | -40.59168 | 33066 ft | 480 kts | 28° |
| 2026-04-30 06:06 | -12.74404 | -40.56202 | 33066 ft | 480 kts | 28° |
| 2026-04-30 06:06 | -12.68367 | -40.53239 | 33064 ft | 481 kts | 28° |
| 2026-04-30 06:07 | -12.62319 | -40.50277 | 33058 ft | 480 kts | 28° |
| 2026-04-30 06:07 | -12.56302 | -40.47332 | 33052 ft | 479 kts | 28° |
| 2026-04-30 06:08 | -12.50291 | -40.44388 | 33047 ft | 479 kts | 28° |
| 2026-04-30 06:08 | -12.44265 | -40.41437 | 33041 ft | 479 kts | 28° |
| 2026-04-30 06:09 | -12.38255 | -40.38497 | 33042 ft | 479 kts | 28° |
| 2026-04-30 06:09 | -12.32235 | -40.35555 | 33039 ft | 479 kts | 28° |
| 2026-04-30 06:10 | -12.26151 | -40.32584 | 33038 ft | 480 kts | 28° |
| 2026-04-30 06:10 | -12.20121 | -40.29640 | 33036 ft | 480 kts | 28° |
| 2026-04-30 06:11 | -12.14099 | -40.26699 | 33037 ft | 480 kts | 28° |
| 2026-04-30 06:11 | -12.08062 | -40.23753 | 33038 ft | 480 kts | 28° |
| 2026-04-30 06:12 | -12.02029 | -40.20811 | 33038 ft | 480 kts | 28° |
| 2026-04-30 06:12 | -11.95992 | -40.17868 | 33038 ft | 480 kts | 28° |
| 2026-04-30 06:13 | -11.89971 | -40.14936 | 33041 ft | 480 kts | 28° |
| 2026-04-30 06:13 | -11.83929 | -40.11993 | 33043 ft | 480 kts | 28° |
| 2026-04-30 06:14 | -11.77889 | -40.09054 | 33045 ft | 480 kts | 28° |
| 2026-04-30 06:14 | -11.71840 | -40.06110 | 33045 ft | 480 kts | 28° |
| 2026-04-30 06:15 | -11.65808 | -40.03176 | 33045 ft | 480 kts | 28° |
| 2026-04-30 06:15 | -11.59751 | -40.00232 | 33038 ft | 481 kts | 28° |
| 2026-04-30 06:16 | -11.53705 | -39.97296 | 33033 ft | 480 kts | 28° |
| 2026-04-30 06:16 | -11.47669 | -39.94365 | 33030 ft | 479 kts | 28° |
| 2026-04-30 06:17 | -11.41639 | -39.91439 | 33032 ft | 479 kts | 28° |
| 2026-04-30 06:17 | -11.35604 | -39.88510 | 33034 ft | 479 kts | 28° |
| 2026-04-30 06:18 | -11.29579 | -39.85589 | 33038 ft | 480 kts | 28° |
| 2026-04-30 06:18 | -11.23530 | -39.82657 | 33039 ft | 480 kts | 28° |
| 2026-04-30 06:19 | -11.17475 | -39.79722 | 33037 ft | 480 kts | 27° |
| 2026-04-30 06:19 | -11.11444 | -39.76801 | 33036 ft | 480 kts | 27° |
| 2026-04-30 06:20 | -11.05403 | -39.73877 | 33024 ft | 479 kts | 27° |
| 2026-04-30 06:20 | -10.99363 | -39.70953 | 33021 ft | 479 kts | 27° |
| 2026-04-30 06:21 | -10.93328 | -39.68035 | 33017 ft | 479 kts | 27° |
| 2026-04-30 06:21 | -10.87301 | -39.65121 | 33016 ft | 480 kts | 27° |
| 2026-04-30 06:22 | -10.81249 | -39.62197 | 33016 ft | 480 kts | 27° |
| 2026-04-30 06:22 | -10.75188 | -39.59270 | 33014 ft | 481 kts | 27° |
| 2026-04-30 06:23 | -10.69140 | -39.56348 | 33014 ft | 480 kts | 27° |
| 2026-04-30 06:23 | -10.63099 | -39.53431 | 33018 ft | 479 kts | 27° |
| 2026-04-30 06:24 | -10.57053 | -39.50514 | 33019 ft | 479 kts | 27° |
| 2026-04-30 06:24 | -10.51010 | -39.47599 | 33018 ft | 479 kts | 27° |
| 2026-04-30 06:25 | -10.45003 | -39.44704 | 33020 ft | 480 kts | 27° |
| 2026-04-30 06:25 | -10.38946 | -39.41784 | 33022 ft | 481 kts | 27° |
| 2026-04-30 06:26 | -10.32884 | -39.38856 | 33024 ft | 481 kts | 27° |
| 2026-04-30 06:26 | -10.26830 | -39.35934 | 33026 ft | 481 kts | 27° |
| 2026-04-30 06:27 | -10.20762 | -39.33012 | 33026 ft | 481 kts | 27° |
| 2026-04-30 06:27 | -10.14702 | -39.30103 | 33022 ft | 480 kts | 27° |
| 2026-04-30 06:28 | -10.08681 | -39.27210 | 33019 ft | 480 kts | 27° |
| 2026-04-30 06:28 | -10.02630 | -39.24304 | 33016 ft | 480 kts | 27° |
| 2026-04-30 06:29 | -9.96567 | -39.21392 | 33014 ft | 481 kts | 27° |
| 2026-04-30 06:29 | -9.90488 | -39.18475 | 33008 ft | 481 kts | 27° |
| 2026-04-30 06:30 | -9.84416 | -39.15566 | 33013 ft | 482 kts | 27° |
| 2026-04-30 06:30 | -9.78317 | -39.12739 | 33011 ft | 482 kts | 26° |
| 2026-04-30 06:31 | -9.72194 | -39.09919 | 33007 ft | 482 kts | 26° |
| 2026-04-30 06:31 | -9.66081 | -39.07098 | 33007 ft | 482 kts | 26° |
| 2026-04-30 06:32 | -9.59976 | -39.04280 | 33004 ft | 482 kts | 26° |
| 2026-04-30 06:32 | -9.53855 | -39.01454 | 33009 ft | 482 kts | 26° |
| 2026-04-30 06:33 | -9.47736 | -38.98629 | 33000 ft | 482 kts | 26° |
| 2026-04-30 06:33 | -9.41619 | -38.95806 | 33000 ft | 482 kts | 26° |
| 2026-04-30 06:34 | -9.35502 | -38.92983 | 33002 ft | 483 kts | 26° |
| 2026-04-30 06:34 | -9.29344 | -38.90144 | 33001 ft | 484 kts | 26° |
| 2026-04-30 06:35 | -9.23211 | -38.87317 | 33002 ft | 483 kts | 26° |
| 2026-04-30 06:35 | -9.17062 | -38.84485 | 33002 ft | 483 kts | 26° |
| 2026-04-30 06:36 | -9.10936 | -38.81663 | 33002 ft | 483 kts | 26° |
| 2026-04-30 06:36 | -9.04833 | -38.78853 | 33003 ft | 483 kts | 26° |
| 2026-04-30 06:37 | -8.98684 | -38.76021 | 33000 ft | 484 kts | 26° |
| 2026-04-30 06:37 | -8.92545 | -38.73196 | 33002 ft | 484 kts | 26° |
| 2026-04-30 06:38 | -8.86413 | -38.70378 | 32997 ft | 484 kts | 26° |
| 2026-04-30 06:38 | -8.80261 | -38.67550 | 32993 ft | 484 kts | 26° |
| 2026-04-30 06:39 | -8.74113 | -38.64723 | 32991 ft | 484 kts | 26° |
| 2026-04-30 06:39 | -8.67944 | -38.61890 | 32993 ft | 484 kts | 26° |
| 2026-04-30 06:40 | -8.61822 | -38.59078 | 32993 ft | 484 kts | 26° |
| 2026-04-30 06:40 | -8.55657 | -38.56249 | 32992 ft | 484 kts | 26° |
| 2026-04-30 06:41 | -8.49497 | -38.53423 | 32990 ft | 485 kts | 26° |
| 2026-04-30 06:41 | -8.43336 | -38.50599 | 32987 ft | 484 kts | 26° |
| 2026-04-30 06:42 | -8.37210 | -38.47790 | 32987 ft | 485 kts | 26° |
| 2026-04-30 06:42 | -8.31065 | -38.44973 | 32991 ft | 485 kts | 26° |
| 2026-04-30 06:43 | -8.24909 | -38.42153 | 32989 ft | 485 kts | 26° |
| 2026-04-30 06:43 | -8.18737 | -38.39325 | 32990 ft | 485 kts | 26° |
| 2026-04-30 06:44 | -8.12568 | -38.36500 | 32994 ft | 485 kts | 26° |
| 2026-04-30 06:44 | -8.06435 | -38.33693 | 33001 ft | 485 kts | 26° |
| 2026-04-30 06:45 | -8.00268 | -38.30869 | 33005 ft | 485 kts | 26° |
| 2026-04-30 06:45 | -7.94097 | -38.28046 | 33003 ft | 484 kts | 26° |
| 2026-04-30 06:46 | -7.87949 | -38.25234 | 33009 ft | 484 kts | 26° |
| 2026-04-30 06:46 | -7.81824 | -38.22433 | 33010 ft | 484 kts | 26° |
| 2026-04-30 06:47 | -7.75650 | -38.19611 | 33015 ft | 484 kts | 26° |
| 2026-04-30 06:47 | -7.69501 | -38.16807 | 33017 ft | 485 kts | 26° |
| 2026-04-30 06:48 | -7.63356 | -38.14005 | 33014 ft | 485 kts | 26° |
| 2026-04-30 06:48 | -7.57189 | -38.11192 | 33014 ft | 485 kts | 26° |
| 2026-04-30 06:49 | -7.51042 | -38.08390 | 33008 ft | 484 kts | 25° |
| 2026-04-30 06:49 | -7.44862 | -38.05574 | 33005 ft | 484 kts | 26° |
| 2026-04-30 06:50 | -7.38724 | -38.02779 | 32992 ft | 484 kts | 26° |
| 2026-04-30 06:50 | -7.32585 | -37.99984 | 32985 ft | 484 kts | 26° |
| 2026-04-30 06:51 | -7.26436 | -37.97181 | 32970 ft | 484 kts | 26° |
| 2026-04-30 06:51 | -7.20286 | -37.94380 | 32959 ft | 484 kts | 25° |
| 2026-04-30 06:52 | -7.14128 | -37.91577 | 32949 ft | 484 kts | 25° |
| 2026-04-30 06:52 | -7.07982 | -37.88778 | 32949 ft | 484 kts | 25° |
| 2026-04-30 06:53 | -7.01801 | -37.85962 | 32943 ft | 484 kts | 25° |
| 2026-04-30 06:53 | -6.95660 | -37.83167 | 32941 ft | 484 kts | 26° |
| 2026-04-30 06:54 | -6.89510 | -37.80365 | 32940 ft | 485 kts | 26° |
| 2026-04-30 06:54 | -6.83354 | -37.77562 | 32937 ft | 486 kts | 25° |
| 2026-04-30 06:55 | -6.77179 | -37.74754 | 32939 ft | 487 kts | 25° |
| 2026-04-30 06:55 | -6.71005 | -37.71947 | 32944 ft | 486 kts | 25° |
| 2026-04-30 06:56 | -6.64791 | -37.69124 | 32949 ft | 486 kts | 25° |
| 2026-04-30 06:56 | -6.58648 | -37.66334 | 32949 ft | 486 kts | 26° |
| 2026-04-30 06:57 | -6.52439 | -37.63512 | 32944 ft | 487 kts | 25° |
| 2026-04-30 06:57 | -6.46255 | -37.60704 | 32940 ft | 487 kts | 25° |
| 2026-04-30 06:58 | -6.40064 | -37.57893 | 32940 ft | 488 kts | 25° |
| 2026-04-30 06:58 | -6.33853 | -37.55073 | 32937 ft | 489 kts | 25° |
| 2026-04-30 06:59 | -6.27643 | -37.52256 | 32935 ft | 489 kts | 25° |
| 2026-04-30 06:59 | -6.21435 | -37.49440 | 32933 ft | 489 kts | 25° |
| 2026-04-30 07:00 | -6.15186 | -37.46604 | 32929 ft | 489 kts | 25° |
| 2026-04-30 07:00 | -6.08964 | -37.43783 | 32926 ft | 490 kts | 25° |
| 2026-04-30 07:01 | -6.02740 | -37.40962 | 32926 ft | 491 kts | 25° |
| 2026-04-30 07:01 | -5.96500 | -37.38134 | 32924 ft | 491 kts | 25° |
| 2026-04-30 07:02 | -5.90259 | -37.35307 | 32921 ft | 491 kts | 25° |
| 2026-04-30 07:02 | -5.84020 | -37.32478 | 32918 ft | 490 kts | 25° |
| 2026-04-30 07:03 | -5.77769 | -37.29646 | 32914 ft | 491 kts | 25° |
| 2026-04-30 07:03 | -5.71528 | -37.26805 | 32911 ft | 490 kts | 25° |
| 2026-04-30 07:04 | -5.65312 | -37.23959 | 32909 ft | 491 kts | 25° |
| 2026-04-30 07:04 | -5.59107 | -37.21119 | 32909 ft | 491 kts | 25° |
| 2026-04-30 07:05 | -5.49742 | -37.16838 | 32908 ft | 491 kts | 25° |
| 2026-04-30 07:05 | -5.43539 | -37.14002 | 32908 ft | 491 kts | 25° |
| 2026-04-30 07:06 | -5.37296 | -37.11148 | 32910 ft | 491 kts | 25° |
| 2026-04-30 07:06 | -5.31105 | -37.08318 | 32912 ft | 491 kts | 25° |
| 2026-04-30 07:07 | -5.24859 | -37.05462 | 32912 ft | 491 kts | 25° |
| 2026-04-30 07:07 | -5.18612 | -37.02607 | 32912 ft | 491 kts | 25° |
| 2026-04-30 07:08 | -5.12388 | -36.99764 | 32915 ft | 491 kts | 25° |
| 2026-04-30 07:08 | -5.06181 | -36.96930 | 32913 ft | 491 kts | 25° |
| 2026-04-30 07:09 | -4.99919 | -36.94071 | 32909 ft | 491 kts | 25° |
| 2026-04-30 07:09 | -4.93703 | -36.91233 | 32906 ft | 492 kts | 25° |
| 2026-04-30 07:10 | -4.87428 | -36.88368 | 32899 ft | 492 kts | 25° |
| 2026-04-30 07:10 | -4.81208 | -36.85529 | 32895 ft | 492 kts | 25° |
| 2026-04-30 07:11 | -4.74953 | -36.82675 | 32891 ft | 492 kts | 25° |
| 2026-04-30 07:11 | -4.68700 | -36.79821 | 32888 ft | 492 kts | 25° |
| 2026-04-30 07:12 | -4.62444 | -36.76970 | 32887 ft | 492 kts | 25° |
| 2026-04-30 07:12 | -4.56197 | -36.74123 | 32884 ft | 493 kts | 25° |
| 2026-04-30 07:13 | -4.49969 | -36.71285 | 32880 ft | 493 kts | 25° |
| 2026-04-30 07:13 | -4.43696 | -36.68427 | 32878 ft | 493 kts | 25° |
| 2026-04-30 07:14 | -4.37454 | -36.65583 | 32880 ft | 492 kts | 25° |
| 2026-04-30 07:14 | -4.31213 | -36.62740 | 32881 ft | 492 kts | 25° |
| 2026-04-30 07:15 | -4.24966 | -36.59896 | 32881 ft | 493 kts | 25° |
| 2026-04-30 07:15 | -4.18694 | -36.57040 | 32880 ft | 494 kts | 25° |
| 2026-04-30 07:16 | -4.12421 | -36.54185 | 32878 ft | 493 kts | 25° |
| 2026-04-30 07:16 | -4.06165 | -36.51337 | 32877 ft | 493 kts | 25° |
| 2026-04-30 07:17 | -3.99929 | -36.48497 | 32877 ft | 493 kts | 25° |
| 2026-04-30 07:18 | -3.90516 | -36.44214 | 32875 ft | 494 kts | 25° |
| 2026-04-30 07:18 | -3.84252 | -36.41363 | 32875 ft | 493 kts | 25° |
| 2026-04-30 07:19 | -3.77996 | -36.38521 | 32873 ft | 493 kts | 25° |
| 2026-04-30 07:19 | -3.71746 | -36.35680 | 32873 ft | 493 kts | 25° |
| 2026-04-30 07:20 | -3.65480 | -36.32832 | 32879 ft | 494 kts | 25° |
| 2026-04-30 07:20 | -3.59212 | -36.29981 | 32876 ft | 493 kts | 25° |
| 2026-04-30 07:21 | -3.52935 | -36.27129 | 32878 ft | 493 kts | 25° |
| 2026-04-30 07:21 | -3.46705 | -36.24297 | 32876 ft | 494 kts | 25° |
| 2026-04-30 07:22 | -3.37298 | -36.20024 | 32886 ft | 494 kts | 25° |
| 2026-04-30 07:22 | -3.31019 | -36.17172 | 32882 ft | 494 kts | 25° |
| 2026-04-30 07:23 | -3.24755 | -36.14328 | 32880 ft | 494 kts | 25° |
| 2026-04-30 07:23 | -3.18472 | -36.11474 | 32878 ft | 494 kts | 25° |
| 2026-04-30 07:24 | -3.12222 | -36.08635 | 32874 ft | 494 kts | 25° |
| 2026-04-30 07:24 | -3.05940 | -36.05783 | 32872 ft | 493 kts | 25° |
| 2026-04-30 07:25 | -2.99702 | -36.02952 | 32876 ft | 493 kts | 25° |
| 2026-04-30 07:25 | -2.93433 | -36.00108 | 32872 ft | 493 kts | 25° |
| 2026-04-30 07:26 | -2.87136 | -35.97253 | 32878 ft | 494 kts | 25° |
| 2026-04-30 07:26 | -2.80865 | -35.94406 | 32879 ft | 493 kts | 25° |
| 2026-04-30 07:27 | -2.74639 | -35.91579 | 32880 ft | 492 kts | 25° |
| 2026-04-30 07:27 | -2.68402 | -35.88749 | 32875 ft | 492 kts | 25° |
| 2026-04-30 07:28 | -2.62167 | -35.85920 | 32878 ft | 490 kts | 25° |
| 2026-04-30 07:28 | -2.55938 | -35.83096 | 32882 ft | 490 kts | 25° |
| 2026-04-30 07:29 | -2.49707 | -35.80270 | 32878 ft | 488 kts | 25° |
| 2026-04-30 07:29 | -2.43543 | -35.77477 | 32880 ft | 488 kts | 25° |
| 2026-04-30 07:30 | -2.34243 | -35.73262 | 32878 ft | 486 kts | 25° |
| 2026-04-30 07:31 | -2.28098 | -35.70477 | 32879 ft | 486 kts | 25° |
| 2026-04-30 07:31 | -2.21910 | -35.67671 | 32879 ft | 485 kts | 25° |
| 2026-04-30 07:32 | -2.15769 | -35.64887 | 32878 ft | 485 kts | 25° |
| 2026-04-30 07:32 | -2.09619 | -35.62101 | 32877 ft | 485 kts | 25° |
| 2026-04-30 07:33 | -2.03462 | -35.59309 | 32879 ft | 484 kts | 25° |
| 2026-04-30 07:33 | -1.97320 | -35.56525 | 32878 ft | 483 kts | 25° |
| 2026-04-30 07:34 | -1.91174 | -35.53742 | 32876 ft | 483 kts | 25° |
| 2026-04-30 07:34 | -1.85044 | -35.50965 | 32876 ft | 484 kts | 25° |
| 2026-04-30 07:35 | -1.78898 | -35.48181 | 32876 ft | 484 kts | 25° |
| 2026-04-30 07:35 | -1.72833 | -35.45286 | 32875 ft | 483 kts | 29° |
| 2026-04-30 07:36 | -1.66903 | -35.42044 | 32876 ft | 483 kts | 30° |
| 2026-04-30 07:36 | -1.61004 | -35.38794 | 32876 ft | 484 kts | 30° |
| 2026-04-30 07:37 | -1.55110 | -35.35551 | 32880 ft | 484 kts | 30° |
| 2026-04-30 07:37 | -1.49176 | -35.32288 | 32886 ft | 484 kts | 30° |
| 2026-04-30 07:38 | -1.43259 | -35.29038 | 32892 ft | 484 kts | 30° |
| 2026-04-30 07:38 | -1.37377 | -35.25806 | 32895 ft | 483 kts | 30° |
| 2026-04-30 07:39 | -1.31461 | -35.22556 | 32896 ft | 483 kts | 30° |
| 2026-04-30 07:39 | -1.25560 | -35.19315 | 32896 ft | 482 kts | 30° |
| 2026-04-30 07:40 | -1.19677 | -35.16082 | 32897 ft | 483 kts | 30° |
| 2026-04-30 07:40 | -1.13779 | -35.12842 | 32897 ft | 483 kts | 30° |
| 2026-04-30 07:41 | -1.07879 | -35.09602 | 32897 ft | 483 kts | 30° |
| 2026-04-30 07:41 | -1.01974 | -35.06359 | 32896 ft | 483 kts | 30° |
| 2026-04-30 07:42 | -0.96080 | -35.03123 | 32896 ft | 482 kts | 30° |
| 2026-04-30 07:42 | -0.90198 | -34.99893 | 32897 ft | 480 kts | 30° |
| 2026-04-30 07:43 | -0.84335 | -34.96672 | 32896 ft | 480 kts | 30° |
| 2026-04-30 07:43 | -0.78464 | -34.93446 | 32896 ft | 481 kts | 30° |
| 2026-04-30 07:44 | -0.72593 | -34.90224 | 32896 ft | 481 kts | 30° |
| 2026-04-30 07:44 | -0.66700 | -34.86988 | 32894 ft | 482 kts | 30° |
| 2026-04-30 07:45 | -0.60820 | -34.83760 | 32890 ft | 481 kts | 30° |
| 2026-04-30 07:45 | -0.54982 | -34.80555 | 32886 ft | 481 kts | 30° |
| 2026-04-30 07:46 | -0.49116 | -34.77332 | 32881 ft | 480 kts | 30° |
| 2026-04-30 07:46 | -0.43244 | -34.74108 | 32877 ft | 480 kts | 30° |
| 2026-04-30 07:47 | -0.37386 | -34.70892 | 32876 ft | 480 kts | 30° |
| 2026-04-30 07:47 | -0.31504 | -34.67661 | 32876 ft | 480 kts | 30° |
| 2026-04-30 07:48 | -0.25630 | -34.64434 | 32876 ft | 480 kts | 30° |
| 2026-04-30 07:48 | -0.19791 | -34.61227 | 32876 ft | 479 kts | 30° |
| 2026-04-30 07:49 | -0.13943 | -34.58015 | 32876 ft | 479 kts | 30° |
| 2026-04-30 07:49 | -0.08100 | -34.54807 | 32876 ft | 478 kts | 30° |
| 2026-04-30 07:50 | -0.02268 | -34.51604 | 32876 ft | 478 kts | 30° |
| 2026-04-30 07:50 | 0.03591 | -34.48387 | 32876 ft | 478 kts | 30° |
| 2026-04-30 07:51 | 0.09446 | -34.45173 | 32876 ft | 478 kts | 30° |
| 2026-04-30 07:51 | 0.15268 | -34.41976 | 32877 ft | 479 kts | 30° |
| 2026-04-30 07:52 | 0.21128 | -34.38760 | 32884 ft | 478 kts | 30° |
| 2026-04-30 07:52 | 0.26948 | -34.35562 | 32893 ft | 478 kts | 30° |
| 2026-04-30 07:53 | 0.32807 | -34.32341 | 32896 ft | 479 kts | 30° |
| 2026-04-30 07:53 | 0.38632 | -34.29139 | 32896 ft | 479 kts | 30° |
| 2026-04-30 07:54 | 0.44527 | -34.25901 | 32896 ft | 479 kts | 30° |
| 2026-04-30 07:54 | 0.50371 | -34.22692 | 32896 ft | 479 kts | 30° |
| 2026-04-30 07:55 | 0.56207 | -34.19487 | 32896 ft | 479 kts | 30° |
| 2026-04-30 07:55 | 0.62034 | -34.16287 | 32896 ft | 479 kts | 30° |
| 2026-04-30 07:56 | 0.67882 | -34.13076 | 32896 ft | 478 kts | 30° |
| 2026-04-30 07:56 | 0.73746 | -34.09856 | 32896 ft | 478 kts | 29° |
| 2026-04-30 07:57 | 0.79591 | -34.06646 | 32896 ft | 478 kts | 29° |
| 2026-04-30 07:57 | 0.85400 | -34.03458 | 32896 ft | 477 kts | 29° |
| 2026-04-30 07:58 | 0.91216 | -34.00268 | 32896 ft | 477 kts | 30° |
| 2026-04-30 07:58 | 0.97071 | -33.97055 | 32896 ft | 478 kts | 29° |
| 2026-04-30 07:59 | 1.02889 | -33.93862 | 32896 ft | 478 kts | 29° |
| 2026-04-30 07:59 | 1.08733 | -33.90655 | 32896 ft | 478 kts | 29° |
| 2026-04-30 08:00 | 1.17485 | -33.85851 | 32896 ft | 477 kts | 30° |
| 2026-04-30 08:00 | 1.23323 | -33.82644 | 32897 ft | 477 kts | 30° |
| 2026-04-30 08:01 | 1.29146 | -33.79446 | 32896 ft | 478 kts | 30° |
| 2026-04-30 08:01 | 1.35017 | -33.76222 | 32896 ft | 478 kts | 30° |
| 2026-04-30 08:02 | 1.43755 | -33.71424 | 32893 ft | 478 kts | 30° |
| 2026-04-30 08:03 | 1.55430 | -33.65014 | 32878 ft | 478 kts | 30° |
| 2026-04-30 08:04 | 1.61242 | -33.61824 | 32876 ft | 478 kts | 30° |
| 2026-04-30 08:04 | 1.67122 | -33.58595 | 32876 ft | 478 kts | 30° |
| 2026-04-30 08:05 | 1.72935 | -33.55402 | 32876 ft | 478 kts | 30° |
| 2026-04-30 08:05 | 1.78776 | -33.52193 | 32876 ft | 479 kts | 30° |
| 2026-04-30 08:06 | 1.84640 | -33.48971 | 32876 ft | 479 kts | 30° |
| 2026-04-30 08:06 | 1.90501 | -33.45750 | 32876 ft | 479 kts | 30° |
| 2026-04-30 08:07 | 1.96341 | -33.42541 | 32884 ft | 480 kts | 30° |
| 2026-04-30 08:07 | 2.02210 | -33.39317 | 32893 ft | 481 kts | 30° |
| 2026-04-30 08:08 | 2.08102 | -33.36079 | 32896 ft | 481 kts | 30° |
| 2026-04-30 08:08 | 2.13964 | -33.32856 | 32897 ft | 481 kts | 30° |
| 2026-04-30 08:09 | 2.19833 | -33.29629 | 32896 ft | 481 kts | 30° |
| 2026-04-30 08:09 | 2.25721 | -33.26390 | 32896 ft | 482 kts | 30° |
| 2026-04-30 08:10 | 2.31609 | -33.23152 | 32897 ft | 482 kts | 30° |
| 2026-04-30 08:10 | 2.37508 | -33.19910 | 32897 ft | 482 kts | 30° |
| 2026-04-30 08:11 | 2.43385 | -33.16679 | 32896 ft | 483 kts | 30° |
| 2026-04-30 08:11 | 2.49312 | -33.13419 | 32896 ft | 484 kts | 30° |
| 2026-04-30 08:12 | 2.55217 | -33.10171 | 32896 ft | 484 kts | 30° |
| 2026-04-30 08:12 | 2.61103 | -33.06934 | 32896 ft | 484 kts | 30° |
| 2026-04-30 08:13 | 2.67023 | -33.03678 | 32896 ft | 485 kts | 30° |
| 2026-04-30 08:13 | 2.72933 | -33.00426 | 32897 ft | 485 kts | 30° |
| 2026-04-30 08:14 | 2.78885 | -32.97151 | 32896 ft | 486 kts | 30° |
| 2026-04-30 08:14 | 2.84804 | -32.93894 | 32896 ft | 486 kts | 30° |
| 2026-04-30 08:15 | 2.90746 | -32.90625 | 32896 ft | 487 kts | 30° |
| 2026-04-30 08:15 | 2.96703 | -32.87343 | 32896 ft | 488 kts | 30° |
| 2026-04-30 08:16 | 3.02700 | -32.84042 | 32897 ft | 489 kts | 30° |
| 2026-04-30 08:16 | 3.08667 | -32.80757 | 32897 ft | 488 kts | 30° |
| 2026-04-30 08:17 | 3.14612 | -32.77485 | 32897 ft | 489 kts | 30° |
| 2026-04-30 08:17 | 3.20575 | -32.74198 | 32899 ft | 489 kts | 30° |
| 2026-04-30 08:18 | 3.26571 | -32.70896 | 32897 ft | 490 kts | 30° |
| 2026-04-30 08:18 | 3.32536 | -32.67610 | 32898 ft | 490 kts | 30° |
| 2026-04-30 08:19 | 3.38562 | -32.64291 | 32897 ft | 490 kts | 30° |
| 2026-04-30 08:19 | 3.44521 | -32.61008 | 32899 ft | 490 kts | 30° |
| 2026-04-30 08:20 | 3.50521 | -32.57701 | 32903 ft | 490 kts | 30° |
| 2026-04-30 08:20 | 3.56515 | -32.54398 | 32909 ft | 490 kts | 30° |
| 2026-04-30 08:21 | 3.62474 | -32.51112 | 32910 ft | 490 kts | 30° |
| 2026-04-30 08:21 | 3.68473 | -32.47805 | 32912 ft | 491 kts | 30° |
| 2026-04-30 08:22 | 3.74453 | -32.44507 | 32913 ft | 490 kts | 30° |
| 2026-04-30 08:22 | 3.80454 | -32.41198 | 32918 ft | 491 kts | 30° |
| 2026-04-30 08:23 | 3.86422 | -32.37907 | 32918 ft | 490 kts | 30° |
| 2026-04-30 08:23 | 3.92408 | -32.34605 | 32917 ft | 490 kts | 30° |
| 2026-04-30 08:24 | 3.98377 | -32.31311 | 32919 ft | 490 kts | 30° |
| 2026-04-30 08:24 | 4.04363 | -32.28007 | 32919 ft | 490 kts | 30° |
| 2026-04-30 08:25 | 4.10360 | -32.24695 | 32918 ft | 491 kts | 30° |
| 2026-04-30 08:25 | 4.16365 | -32.21380 | 32921 ft | 491 kts | 30° |
| 2026-04-30 08:26 | 4.22342 | -32.18082 | 32921 ft | 491 kts | 30° |
| 2026-04-30 08:26 | 4.28343 | -32.14767 | 32920 ft | 490 kts | 30° |
| 2026-04-30 08:27 | 4.34305 | -32.11474 | 32918 ft | 490 kts | 30° |
| 2026-04-30 08:27 | 4.40269 | -32.08178 | 32920 ft | 490 kts | 30° |
| 2026-04-30 08:28 | 4.46256 | -32.04870 | 32920 ft | 490 kts | 30° |
| 2026-04-30 08:28 | 4.52252 | -32.01555 | 32918 ft | 490 kts | 30° |
| 2026-04-30 08:29 | 4.58244 | -31.98245 | 32917 ft | 491 kts | 30° |
| 2026-04-30 08:29 | 4.64230 | -31.94936 | 32919 ft | 491 kts | 30° |
| 2026-04-30 08:30 | 4.70236 | -31.91614 | 32918 ft | 491 kts | 30° |
| 2026-04-30 08:30 | 4.76209 | -31.88309 | 32918 ft | 490 kts | 30° |
| 2026-04-30 08:31 | 4.82209 | -31.84991 | 32918 ft | 492 kts | 30° |
| 2026-04-30 08:31 | 4.88218 | -31.81666 | 32917 ft | 492 kts | 30° |
| 2026-04-30 08:32 | 4.94218 | -31.78346 | 32917 ft | 491 kts | 30° |
| 2026-04-30 08:32 | 5.00238 | -31.75016 | 32918 ft | 492 kts | 30° |
| 2026-04-30 08:33 | 5.06218 | -31.71705 | 32919 ft | 492 kts | 30° |
| 2026-04-30 08:33 | 5.12244 | -31.68368 | 32922 ft | 492 kts | 30° |
| 2026-04-30 08:34 | 5.18225 | -31.65052 | 32934 ft | 492 kts | 30° |
| 2026-04-30 08:34 | 5.24235 | -31.61712 | 32939 ft | 491 kts | 30° |
| 2026-04-30 08:35 | 5.30186 | -31.58365 | 32942 ft | 491 kts | 30° |
| 2026-04-30 08:35 | 5.36168 | -31.55000 | 32945 ft | 492 kts | 30° |
| 2026-04-30 08:36 | 5.42155 | -31.51632 | 32947 ft | 492 kts | 30° |
| 2026-04-30 08:36 | 5.48134 | -31.48271 | 32950 ft | 491 kts | 30° |
| 2026-04-30 08:37 | 5.54136 | -31.44895 | 32951 ft | 493 kts | 30° |
| 2026-04-30 08:37 | 5.60102 | -31.41540 | 32954 ft | 493 kts | 30° |
| 2026-04-30 08:38 | 5.66098 | -31.38166 | 32950 ft | 492 kts | 30° |
| 2026-04-30 08:38 | 5.72112 | -31.34781 | 32951 ft | 492 kts | 30° |
| 2026-04-30 08:39 | 5.78065 | -31.31430 | 32955 ft | 491 kts | 30° |
| 2026-04-30 08:39 | 5.84044 | -31.28064 | 32955 ft | 491 kts | 30° |
| 2026-04-30 08:40 | 5.89980 | -31.24722 | 32958 ft | 491 kts | 30° |
| 2026-04-30 08:40 | 5.95962 | -31.21354 | 32962 ft | 491 kts | 30° |
| 2026-04-30 08:41 | 6.01913 | -31.18000 | 32963 ft | 491 kts | 30° |
| 2026-04-30 08:41 | 6.07901 | -31.14625 | 32961 ft | 491 kts | 30° |
| 2026-04-30 08:42 | 6.13900 | -31.11243 | 32959 ft | 491 kts | 30° |
| 2026-04-30 08:42 | 6.19840 | -31.07893 | 32957 ft | 490 kts | 30° |
| 2026-04-30 08:43 | 6.25780 | -31.04543 | 32956 ft | 489 kts | 30° |
| 2026-04-30 08:43 | 6.31745 | -31.01178 | 32954 ft | 490 kts | 30° |
| 2026-04-30 08:44 | 6.37687 | -30.97825 | 32957 ft | 490 kts | 30° |
| 2026-04-30 08:44 | 6.43652 | -30.94459 | 32956 ft | 490 kts | 30° |
| 2026-04-30 08:45 | 6.49604 | -30.91099 | 32957 ft | 490 kts | 30° |
| 2026-04-30 08:45 | 6.55550 | -30.87741 | 32958 ft | 491 kts | 30° |
| 2026-04-30 08:46 | 6.61543 | -30.84354 | 32955 ft | 491 kts | 30° |
| 2026-04-30 08:46 | 6.67481 | -30.80995 | 32957 ft | 491 kts | 30° |
| 2026-04-30 08:47 | 6.73467 | -30.77611 | 32958 ft | 491 kts | 30° |
| 2026-04-30 08:47 | 6.79429 | -30.74240 | 32959 ft | 492 kts | 30° |
| 2026-04-30 08:48 | 6.85421 | -30.70852 | 32957 ft | 491 kts | 30° |
| 2026-04-30 08:48 | 6.91398 | -30.67471 | 32958 ft | 491 kts | 30° |
| 2026-04-30 08:49 | 6.97342 | -30.64106 | 32960 ft | 491 kts | 30° |
| 2026-04-30 08:49 | 7.03291 | -30.60738 | 32962 ft | 491 kts | 30° |
| 2026-04-30 08:50 | 7.09277 | -30.57348 | 32969 ft | 492 kts | 30° |
| 2026-04-30 08:50 | 7.15262 | -30.53958 | 32979 ft | 492 kts | 29° |
| 2026-04-30 08:51 | 7.21205 | -30.50592 | 32983 ft | 491 kts | 29° |
| 2026-04-30 08:51 | 7.27181 | -30.47206 | 32984 ft | 491 kts | 29° |
| 2026-04-30 08:52 | 7.33155 | -30.43819 | 32984 ft | 491 kts | 29° |
| 2026-04-30 08:52 | 7.39107 | -30.40444 | 32984 ft | 491 kts | 29° |
| 2026-04-30 08:53 | 7.45069 | -30.37062 | 32979 ft | 492 kts | 29° |
| 2026-04-30 08:53 | 7.51068 | -30.33657 | 32980 ft | 493 kts | 29° |
| 2026-04-30 08:54 | 7.57036 | -30.30271 | 32982 ft | 493 kts | 29° |
| 2026-04-30 08:54 | 7.63028 | -30.26868 | 32980 ft | 492 kts | 29° |
| 2026-04-30 08:55 | 7.68984 | -30.23486 | 32978 ft | 492 kts | 29° |
| 2026-04-30 08:55 | 7.74975 | -30.20082 | 32981 ft | 492 kts | 29° |
| 2026-04-30 08:56 | 7.80932 | -30.16696 | 32981 ft | 492 kts | 29° |
| 2026-04-30 08:56 | 7.86915 | -30.13295 | 32981 ft | 492 kts | 29° |
| 2026-04-30 08:57 | 7.92877 | -30.09903 | 32983 ft | 492 kts | 28° |
| 2026-04-30 08:57 | 7.98864 | -30.06497 | 32980 ft | 492 kts | 28° |
| 2026-04-30 08:58 | 8.04832 | -30.03100 | 32983 ft | 492 kts | 28° |
| 2026-04-30 08:58 | 8.10787 | -29.99711 | 32981 ft | 491 kts | 28° |
| 2026-04-30 08:59 | 8.16767 | -29.96306 | 32982 ft | 491 kts | 29° |
| 2026-04-30 08:59 | 8.22701 | -29.92925 | 32984 ft | 490 kts | 28° |
| 2026-04-30 09:00 | 8.28676 | -29.89518 | 32985 ft | 490 kts | 28° |
| 2026-04-30 09:00 | 8.34588 | -29.86148 | 32987 ft | 490 kts | 28° |
| 2026-04-30 09:01 | 8.40558 | -29.82744 | 32987 ft | 490 kts | 28° |
| 2026-04-30 09:01 | 8.46493 | -29.79361 | 32988 ft | 491 kts | 28° |
| 2026-04-30 09:02 | 8.55426 | -29.74259 | 32990 ft | 490 kts | 28° |
| 2026-04-30 09:02 | 8.61379 | -29.70857 | 32993 ft | 490 kts | 28° |
| 2026-04-30 09:03 | 8.67293 | -29.67476 | 32997 ft | 490 kts | 28° |
| 2026-04-30 09:03 | 8.73261 | -29.64065 | 33000 ft | 491 kts | 28° |
| 2026-04-30 09:04 | 8.79213 | -29.60664 | 33000 ft | 490 kts | 28° |
| 2026-04-30 09:04 | 8.85170 | -29.57257 | 33000 ft | 490 kts | 28° |
| 2026-04-30 09:05 | 8.91082 | -29.53874 | 33000 ft | 490 kts | 28° |
| 2026-04-30 09:05 | 8.97040 | -29.50464 | 33000 ft | 490 kts | 28° |
| 2026-04-30 09:06 | 9.02985 | -29.47061 | 33000 ft | 490 kts | 28° |
| 2026-04-30 09:06 | 9.08926 | -29.43658 | 33001 ft | 490 kts | 28° |
| 2026-04-30 09:07 | 9.14865 | -29.40255 | 33002 ft | 490 kts | 28° |
| 2026-04-30 09:07 | 9.20760 | -29.36875 | 33004 ft | 490 kts | 28° |
| 2026-04-30 09:08 | 9.26705 | -29.33465 | 33004 ft | 489 kts | 28° |
| 2026-04-30 09:08 | 9.32646 | -29.30059 | 33006 ft | 489 kts | 28° |
| 2026-04-30 09:09 | 9.38575 | -29.26658 | 33007 ft | 489 kts | 28° |
| 2026-04-30 09:09 | 9.44498 | -29.23257 | 33007 ft | 489 kts | 28° |
| 2026-04-30 09:10 | 9.50429 | -29.19849 | 33009 ft | 490 kts | 28° |
| 2026-04-30 09:10 | 9.56371 | -29.16436 | 33010 ft | 490 kts | 28° |
| 2026-04-30 09:11 | 9.62273 | -29.13044 | 33012 ft | 490 kts | 28° |
| 2026-04-30 09:11 | 9.68211 | -29.09629 | 33014 ft | 490 kts | 28° |
| 2026-04-30 09:12 | 9.74150 | -29.06213 | 33015 ft | 490 kts | 28° |
| 2026-04-30 09:12 | 9.80084 | -29.02801 | 33016 ft | 489 kts | 28° |
| 2026-04-30 09:13 | 9.86003 | -28.99389 | 33018 ft | 489 kts | 28° |
| 2026-04-30 09:13 | 9.91922 | -28.95977 | 33018 ft | 489 kts | 28° |
| 2026-04-30 09:14 | 9.97852 | -28.92559 | 33020 ft | 489 kts | 28° |
| 2026-04-30 09:14 | 10.03789 | -28.89134 | 33020 ft | 489 kts | 28° |
| 2026-04-30 09:15 | 10.09707 | -28.85720 | 33023 ft | 488 kts | 28° |
| 2026-04-30 09:15 | 10.15611 | -28.82313 | 33024 ft | 487 kts | 28° |
| 2026-04-30 09:16 | 10.21476 | -28.78927 | 33023 ft | 487 kts | 28° |
| 2026-04-30 09:16 | 10.27381 | -28.75518 | 33024 ft | 487 kts | 28° |
| 2026-04-30 09:17 | 10.33284 | -28.72108 | 33025 ft | 486 kts | 28° |
| 2026-04-30 09:17 | 10.39181 | -28.68698 | 33026 ft | 486 kts | 28° |
| 2026-04-30 09:18 | 10.45063 | -28.65297 | 33028 ft | 486 kts | 28° |
| 2026-04-30 09:18 | 10.50940 | -28.61897 | 33030 ft | 485 kts | 28° |
| 2026-04-30 09:19 | 10.56820 | -28.58493 | 33032 ft | 485 kts | 28° |
| 2026-04-30 09:19 | 10.62693 | -28.55093 | 33033 ft | 485 kts | 28° |
| 2026-04-30 09:20 | 10.68542 | -28.51704 | 33029 ft | 486 kts | 28° |
| 2026-04-30 09:20 | 10.74428 | -28.48293 | 33026 ft | 486 kts | 28° |
| 2026-04-30 09:21 | 10.80309 | -28.44883 | 33020 ft | 486 kts | 28° |
| 2026-04-30 09:21 | 10.86191 | -28.41472 | 33017 ft | 485 kts | 28° |
| 2026-04-30 09:22 | 10.92084 | -28.38051 | 33018 ft | 485 kts | 28° |
| 2026-04-30 09:22 | 10.97954 | -28.34642 | 33020 ft | 485 kts | 28° |
| 2026-04-30 09:23 | 11.03819 | -28.31235 | 33021 ft | 486 kts | 28° |
| 2026-04-30 09:23 | 11.09681 | -28.27827 | 33021 ft | 486 kts | 28° |
| 2026-04-30 09:24 | 11.15578 | -28.24401 | 33021 ft | 487 kts | 28° |
| 2026-04-30 09:24 | 11.21457 | -28.20980 | 33020 ft | 487 kts | 28° |
| 2026-04-30 09:25 | 11.27371 | -28.17538 | 33021 ft | 485 kts | 28° |
| 2026-04-30 09:25 | 11.33217 | -28.14134 | 33021 ft | 485 kts | 28° |
| 2026-04-30 09:26 | 11.39080 | -28.10719 | 33020 ft | 485 kts | 28° |
| 2026-04-30 09:26 | 11.44947 | -28.07298 | 33020 ft | 486 kts | 28° |
| 2026-04-30 09:27 | 11.50826 | -28.03871 | 33021 ft | 486 kts | 28° |
| 2026-04-30 09:27 | 11.56730 | -28.00426 | 33021 ft | 486 kts | 28° |
| 2026-04-30 09:28 | 11.62610 | -27.96993 | 33020 ft | 486 kts | 28° |
| 2026-04-30 09:28 | 11.68492 | -27.93560 | 33020 ft | 486 kts | 28° |
| 2026-04-30 09:29 | 11.74335 | -27.90146 | 33021 ft | 485 kts | 28° |
| 2026-04-30 09:29 | 11.80175 | -27.86731 | 33021 ft | 484 kts | 28° |
| 2026-04-30 09:30 | 11.86064 | -27.83286 | 33020 ft | 485 kts | 28° |
| 2026-04-30 09:30 | 11.91944 | -27.79845 | 33020 ft | 486 kts | 28° |
| 2026-04-30 09:31 | 11.97782 | -27.76429 | 33021 ft | 486 kts | 28° |
| 2026-04-30 09:31 | 12.03654 | -27.72988 | 33021 ft | 485 kts | 28° |
| 2026-04-30 09:32 | 12.09550 | -27.69533 | 33022 ft | 485 kts | 28° |
| 2026-04-30 09:32 | 12.15399 | -27.66103 | 33022 ft | 485 kts | 28° |
| 2026-04-30 09:33 | 12.21249 | -27.62672 | 33024 ft | 485 kts | 28° |
| 2026-04-30 09:33 | 12.27102 | -27.59238 | 33025 ft | 485 kts | 28° |
| 2026-04-30 09:34 | 12.32959 | -27.55798 | 33026 ft | 486 kts | 28° |
| 2026-04-30 09:34 | 12.38858 | -27.52332 | 33027 ft | 486 kts | 28° |
| 2026-04-30 09:35 | 12.44721 | -27.48886 | 33030 ft | 486 kts | 28° |
| 2026-04-30 09:35 | 12.50577 | -27.45442 | 33032 ft | 486 kts | 28° |
| 2026-04-30 09:36 | 12.56446 | -27.41987 | 33032 ft | 486 kts | 28° |
| 2026-04-30 09:36 | 12.62333 | -27.38520 | 33033 ft | 486 kts | 28° |
| 2026-04-30 09:37 | 12.68188 | -27.35072 | 33035 ft | 487 kts | 28° |
| 2026-04-30 09:37 | 12.74100 | -27.31588 | 33033 ft | 487 kts | 28° |
| 2026-04-30 09:38 | 12.79966 | -27.28130 | 33036 ft | 488 kts | 28° |
| 2026-04-30 09:38 | 12.85876 | -27.24642 | 33038 ft | 488 kts | 28° |
| 2026-04-30 09:39 | 12.91741 | -27.21180 | 33038 ft | 487 kts | 28° |
| 2026-04-30 09:39 | 12.97609 | -27.17714 | 33041 ft | 486 kts | 28° |
| 2026-04-30 09:40 | 13.03478 | -27.14245 | 33041 ft | 487 kts | 28° |
| 2026-04-30 09:40 | 13.09344 | -27.10777 | 33041 ft | 487 kts | 28° |
| 2026-04-30 09:41 | 13.15231 | -27.07295 | 33041 ft | 487 kts | 28° |
| 2026-04-30 09:41 | 13.21126 | -27.03803 | 33041 ft | 487 kts | 28° |
| 2026-04-30 09:42 | 13.26988 | -27.00331 | 33041 ft | 488 kts | 28° |
| 2026-04-30 09:42 | 13.32887 | -26.96836 | 33041 ft | 488 kts | 28° |
| 2026-04-30 09:43 | 13.38738 | -26.93366 | 33041 ft | 487 kts | 28° |
| 2026-04-30 09:43 | 13.44618 | -26.89877 | 33041 ft | 487 kts | 28° |
| 2026-04-30 09:44 | 13.50497 | -26.86387 | 33041 ft | 487 kts | 28° |
| 2026-04-30 09:44 | 13.56362 | -26.82904 | 33041 ft | 487 kts | 28° |
| 2026-04-30 09:45 | 13.62247 | -26.79406 | 33041 ft | 488 kts | 28° |
| 2026-04-30 09:45 | 13.68114 | -26.75917 | 33041 ft | 487 kts | 28° |
| 2026-04-30 09:46 | 13.73981 | -26.72424 | 33041 ft | 487 kts | 28° |
| 2026-04-30 09:46 | 13.79849 | -26.68932 | 33041 ft | 487 kts | 28° |
| 2026-04-30 09:47 | 13.85718 | -26.65435 | 33041 ft | 487 kts | 28° |
| 2026-04-30 09:47 | 13.91589 | -26.61936 | 33041 ft | 487 kts | 28° |
| 2026-04-30 09:48 | 13.97473 | -26.58426 | 33042 ft | 487 kts | 28° |
| 2026-04-30 09:48 | 14.03356 | -26.54917 | 33043 ft | 487 kts | 28° |
| 2026-04-30 09:49 | 14.09226 | -26.51412 | 33045 ft | 487 kts | 28° |
| 2026-04-30 09:49 | 14.15092 | -26.47907 | 33048 ft | 487 kts | 28° |
| 2026-04-30 09:50 | 14.20926 | -26.44419 | 33046 ft | 487 kts | 28° |
| 2026-04-30 09:50 | 14.26802 | -26.40903 | 33047 ft | 488 kts | 28° |
| 2026-04-30 09:51 | 14.32671 | -26.37388 | 33048 ft | 488 kts | 28° |
| 2026-04-30 09:51 | 14.38563 | -26.33855 | 33050 ft | 487 kts | 28° |
| 2026-04-30 09:52 | 14.44432 | -26.30330 | 33051 ft | 488 kts | 28° |
| 2026-04-30 09:52 | 14.50335 | -26.26787 | 33057 ft | 488 kts | 28° |
| 2026-04-30 09:53 | 14.56207 | -26.23262 | 33056 ft | 488 kts | 28° |
| 2026-04-30 09:53 | 14.62062 | -26.19744 | 33054 ft | 488 kts | 28° |
| 2026-04-30 09:54 | 14.67934 | -26.16214 | 33057 ft | 487 kts | 28° |
| 2026-04-30 09:54 | 14.73793 | -26.12691 | 33059 ft | 488 kts | 28° |
| 2026-04-30 09:55 | 14.79649 | -26.09161 | 33059 ft | 488 kts | 28° |
| 2026-04-30 09:55 | 14.85523 | -26.05621 | 33061 ft | 488 kts | 28° |
| 2026-04-30 09:56 | 14.91384 | -26.02087 | 33061 ft | 488 kts | 28° |
| 2026-04-30 09:56 | 14.97282 | -25.98529 | 33062 ft | 488 kts | 28° |
| 2026-04-30 09:57 | 15.03120 | -25.95006 | 33061 ft | 488 kts | 28° |
| 2026-04-30 09:57 | 15.09026 | -25.91440 | 33062 ft | 489 kts | 28° |
| 2026-04-30 09:58 | 15.14899 | -25.87892 | 33064 ft | 488 kts | 28° |
| 2026-04-30 09:58 | 15.20766 | -25.84346 | 33065 ft | 488 kts | 28° |
| 2026-04-30 09:59 | 15.32527 | -25.77228 | 33069 ft | 488 kts | 27° |
| 2026-04-30 10:00 | 15.41333 | -25.71895 | 33068 ft | 488 kts | 27° |
| 2026-04-30 10:01 | 15.50125 | -25.66562 | 33071 ft | 488 kts | 27° |
| 2026-04-30 10:02 | 15.58895 | -25.61240 | 33073 ft | 488 kts | 27° |
| 2026-04-30 10:02 | 15.64796 | -25.57655 | 33074 ft | 489 kts | 27° |
| 2026-04-30 10:03 | 15.70652 | -25.54095 | 33076 ft | 488 kts | 27° |
| 2026-04-30 10:03 | 15.76507 | -25.50532 | 33077 ft | 488 kts | 27° |
| 2026-04-30 10:04 | 15.82360 | -25.46972 | 33079 ft | 487 kts | 27° |
| 2026-04-30 10:04 | 15.88215 | -25.43411 | 33080 ft | 487 kts | 27° |
| 2026-04-30 10:05 | 15.94099 | -25.39827 | 33080 ft | 487 kts | 26° |
| 2026-04-30 10:05 | 15.99944 | -25.36263 | 33081 ft | 487 kts | 26° |
| 2026-04-30 10:06 | 16.05811 | -25.32685 | 33081 ft | 487 kts | 27° |
| 2026-04-30 10:06 | 16.11652 | -25.29117 | 33083 ft | 487 kts | 27° |
| 2026-04-30 10:07 | 16.17514 | -25.25533 | 33085 ft | 487 kts | 26° |
| 2026-04-30 10:07 | 16.23347 | -25.21966 | 33085 ft | 487 kts | 26° |
| 2026-04-30 10:08 | 16.29199 | -25.18385 | 33086 ft | 487 kts | 26° |
| 2026-04-30 10:08 | 16.35046 | -25.14810 | 33086 ft | 488 kts | 26° |
| 2026-04-30 10:09 | 16.40885 | -25.11233 | 33088 ft | 488 kts | 26° |
| 2026-04-30 10:09 | 16.46739 | -25.07646 | 33089 ft | 488 kts | 26° |
| 2026-04-30 10:10 | 16.52607 | -25.04045 | 33089 ft | 487 kts | 26° |
| 2026-04-30 10:10 | 16.58457 | -25.00452 | 33091 ft | 488 kts | 26° |
| 2026-04-30 10:11 | 16.64302 | -24.96860 | 33092 ft | 487 kts | 26° |
| 2026-04-30 10:11 | 16.70146 | -24.93265 | 33093 ft | 487 kts | 26° |
| 2026-04-30 10:12 | 16.75977 | -24.89675 | 33093 ft | 488 kts | 26° |
| 2026-04-30 10:12 | 16.81816 | -24.86078 | 33098 ft | 488 kts | 26° |
| 2026-04-30 10:13 | 16.87699 | -24.82454 | 33099 ft | 488 kts | 26° |
| 2026-04-30 10:13 | 16.93527 | -24.78856 | 33102 ft | 487 kts | 26° |
| 2026-04-30 10:14 | 16.99360 | -24.75257 | 33101 ft | 488 kts | 26° |
| 2026-04-30 10:14 | 17.08138 | -24.69832 | 33107 ft | 487 kts | 26° |
| 2026-04-30 10:15 | 17.13972 | -24.66223 | 33108 ft | 488 kts | 26° |
| 2026-04-30 10:15 | 17.19812 | -24.62611 | 33105 ft | 488 kts | 26° |
| 2026-04-30 10:16 | 17.25684 | -24.58973 | 33107 ft | 487 kts | 26° |
| 2026-04-30 10:17 | 17.34435 | -24.53553 | 33104 ft | 488 kts | 25° |
| 2026-04-30 10:17 | 17.43202 | -24.48112 | 33105 ft | 488 kts | 25° |
| 2026-04-30 10:18 | 17.49043 | -24.44483 | 33105 ft | 489 kts | 25° |
| 2026-04-30 10:19 | 17.57818 | -24.39027 | 33110 ft | 489 kts | 25° |
| 2026-04-30 10:19 | 17.63660 | -24.35393 | 33104 ft | 489 kts | 25° |
| 2026-04-30 10:20 | 17.69548 | -24.31726 | 33103 ft | 489 kts | 25° |
| 2026-04-30 10:20 | 17.78319 | -24.26254 | 33105 ft | 489 kts | 25° |
| 2026-04-30 10:21 | 17.84184 | -24.22593 | 33107 ft | 490 kts | 25° |
| 2026-04-30 10:21 | 17.90015 | -24.18949 | 33106 ft | 490 kts | 25° |
| 2026-04-30 10:22 | 17.95872 | -24.15289 | 33103 ft | 490 kts | 25° |
| 2026-04-30 10:22 | 18.01742 | -24.11619 | 33103 ft | 490 kts | 25° |
| 2026-04-30 10:23 | 18.07600 | -24.07951 | 33103 ft | 489 kts | 25° |
| 2026-04-30 10:23 | 18.13415 | -24.04306 | 33105 ft | 484 kts | 25° |
| 2026-04-30 10:24 | 18.19227 | -24.00664 | 33103 ft | 484 kts | 25° |
| 2026-04-30 10:24 | 18.24997 | -23.97045 | 33104 ft | 485 kts | 25° |
| 2026-04-30 10:25 | 18.30785 | -23.93409 | 33103 ft | 485 kts | 25° |
| 2026-04-30 10:25 | 18.36602 | -23.89756 | 33104 ft | 484 kts | 25° |
| 2026-04-30 10:26 | 18.42379 | -23.86124 | 33104 ft | 484 kts | 25° |
| 2026-04-30 10:26 | 18.48178 | -23.82475 | 33103 ft | 485 kts | 24° |
| 2026-04-30 10:27 | 18.53959 | -23.78836 | 33103 ft | 484 kts | 25° |
| 2026-04-30 10:27 | 18.59738 | -23.75192 | 33103 ft | 484 kts | 25° |
| 2026-04-30 10:28 | 18.65564 | -23.71516 | 33103 ft | 485 kts | 24° |
| 2026-04-30 10:28 | 18.71332 | -23.67876 | 33103 ft | 484 kts | 24° |
| 2026-04-30 10:29 | 18.77134 | -23.64209 | 33103 ft | 484 kts | 24° |
| 2026-04-30 10:29 | 18.82930 | -23.60544 | 33103 ft | 485 kts | 24° |
| 2026-04-30 10:30 | 18.88698 | -23.56893 | 33104 ft | 485 kts | 24° |
| 2026-04-30 10:30 | 18.94507 | -23.53214 | 33103 ft | 485 kts | 24° |
| 2026-04-30 10:31 | 19.00272 | -23.49558 | 33104 ft | 484 kts | 24° |
| 2026-04-30 10:31 | 19.06041 | -23.45898 | 33103 ft | 484 kts | 24° |
| 2026-04-30 10:32 | 19.11838 | -23.42218 | 33104 ft | 484 kts | 24° |
| 2026-04-30 10:32 | 19.17620 | -23.38543 | 33104 ft | 485 kts | 24° |
| 2026-04-30 10:33 | 19.23422 | -23.34850 | 33103 ft | 485 kts | 24° |
| 2026-04-30 10:33 | 19.29211 | -23.31169 | 33102 ft | 486 kts | 24° |
| 2026-04-30 10:34 | 19.34977 | -23.27496 | 33103 ft | 484 kts | 24° |
| 2026-04-30 10:34 | 19.40780 | -23.23797 | 33103 ft | 485 kts | 24° |
| 2026-04-30 10:35 | 19.46544 | -23.20117 | 33103 ft | 484 kts | 24° |
| 2026-04-30 10:35 | 19.52327 | -23.16424 | 33103 ft | 485 kts | 24° |
| 2026-04-30 10:36 | 19.58082 | -23.12747 | 33103 ft | 484 kts | 24° |
| 2026-04-30 10:36 | 19.63857 | -23.09051 | 33103 ft | 484 kts | 24° |
| 2026-04-30 10:37 | 19.69655 | -23.05338 | 33104 ft | 485 kts | 25° |
| 2026-04-30 10:37 | 19.75422 | -23.01642 | 33103 ft | 485 kts | 25° |
| 2026-04-30 10:38 | 19.81172 | -22.97954 | 33104 ft | 484 kts | 25° |
| 2026-04-30 10:38 | 19.86970 | -22.94231 | 33103 ft | 484 kts | 25° |
| 2026-04-30 10:39 | 19.92728 | -22.90530 | 33103 ft | 484 kts | 25° |
| 2026-04-30 10:39 | 19.98482 | -22.86832 | 33103 ft | 484 kts | 25° |
| 2026-04-30 10:40 | 20.04260 | -22.83111 | 33104 ft | 484 kts | 25° |
| 2026-04-30 10:40 | 20.10008 | -22.79405 | 33108 ft | 483 kts | 25° |
| 2026-04-30 10:41 | 20.15770 | -22.75691 | 33107 ft | 483 kts | 25° |
| 2026-04-30 10:41 | 20.21491 | -22.71999 | 33107 ft | 483 kts | 25° |
| 2026-04-30 10:42 | 20.27257 | -22.68274 | 33105 ft | 483 kts | 25° |
| 2026-04-30 10:42 | 20.33010 | -22.64557 | 33108 ft | 483 kts | 25° |
| 2026-04-30 10:43 | 20.38736 | -22.60852 | 33107 ft | 482 kts | 25° |
| 2026-04-30 10:43 | 20.44480 | -22.57132 | 33107 ft | 482 kts | 25° |
| 2026-04-30 10:44 | 20.50220 | -22.53413 | 33105 ft | 483 kts | 24° |
| 2026-04-30 10:44 | 20.55937 | -22.49706 | 33104 ft | 482 kts | 25° |
| 2026-04-30 10:45 | 20.61663 | -22.45984 | 33104 ft | 481 kts | 24° |
| 2026-04-30 10:45 | 20.67408 | -22.42252 | 33106 ft | 481 kts | 24° |
| 2026-04-30 10:46 | 20.73128 | -22.38531 | 33108 ft | 481 kts | 24° |
| 2026-04-30 10:46 | 20.78828 | -22.34822 | 33106 ft | 481 kts | 25° |
| 2026-04-30 10:47 | 20.84527 | -22.31108 | 33106 ft | 481 kts | 25° |
| 2026-04-30 10:47 | 20.90276 | -22.27357 | 33105 ft | 481 kts | 25° |
| 2026-04-30 10:48 | 20.95996 | -22.23624 | 33108 ft | 481 kts | 25° |
| 2026-04-30 10:48 | 21.01669 | -22.19915 | 33105 ft | 480 kts | 25° |
| 2026-04-30 10:49 | 21.07374 | -22.16185 | 33106 ft | 480 kts | 25° |
| 2026-04-30 10:49 | 21.13108 | -22.12433 | 33105 ft | 480 kts | 25° |
| 2026-04-30 10:50 | 21.18817 | -22.08692 | 33106 ft | 480 kts | 25° |
| 2026-04-30 10:50 | 21.24501 | -22.04965 | 33105 ft | 481 kts | 25° |
| 2026-04-30 10:51 | 21.30207 | -22.01221 | 33108 ft | 480 kts | 25° |
| 2026-04-30 10:51 | 21.35923 | -21.97467 | 33107 ft | 480 kts | 25° |
| 2026-04-30 10:52 | 21.41624 | -21.93717 | 33105 ft | 481 kts | 25° |
| 2026-04-30 10:52 | 21.47310 | -21.89973 | 33107 ft | 481 kts | 24° |
| 2026-04-30 10:53 | 21.53040 | -21.86197 | 33107 ft | 481 kts | 24° |
| 2026-04-30 10:53 | 21.58717 | -21.82453 | 33107 ft | 480 kts | 25° |
| 2026-04-30 10:54 | 21.64394 | -21.78705 | 33107 ft | 480 kts | 24° |
| 2026-04-30 10:54 | 21.70103 | -21.74932 | 33107 ft | 479 kts | 24° |
| 2026-04-30 10:55 | 21.75769 | -21.71187 | 33105 ft | 480 kts | 24° |
| 2026-04-30 10:55 | 21.81446 | -21.67428 | 33107 ft | 479 kts | 24° |
| 2026-04-30 10:56 | 21.87124 | -21.63666 | 33110 ft | 478 kts | 24° |
| 2026-04-30 10:56 | 21.92827 | -21.59885 | 33105 ft | 479 kts | 24° |
| 2026-04-30 10:57 | 21.98503 | -21.56115 | 33108 ft | 480 kts | 24° |
| 2026-04-30 10:57 | 22.04182 | -21.52343 | 33112 ft | 480 kts | 24° |
| 2026-04-30 10:58 | 22.09864 | -21.48565 | 33110 ft | 480 kts | 24° |
| 2026-04-30 10:58 | 22.15577 | -21.44762 | 33114 ft | 479 kts | 24° |
| 2026-04-30 10:59 | 22.21245 | -21.40985 | 33107 ft | 480 kts | 25° |
| 2026-04-30 10:59 | 22.26927 | -21.37193 | 33107 ft | 479 kts | 25° |
| 2026-04-30 11:00 | 22.32605 | -21.33402 | 33110 ft | 479 kts | 25° |
| 2026-04-30 11:00 | 22.38281 | -21.29611 | 33114 ft | 482 kts | 25° |
| 2026-04-30 11:01 | 22.44053 | -21.25754 | 33299 ft | 490 kts | 25° |
| 2026-04-30 11:01 | 22.46931 | -21.23827 | 33513 ft | 492 kts | 25° |
| 2026-04-30 11:01 | 22.49844 | -21.21872 | 33805 ft | 492 kts | 25° |
| 2026-04-30 11:02 | 22.52765 | -21.19910 | 34117 ft | 491 kts | 25° |
| 2026-04-30 11:02 | 22.55645 | -21.17975 | 34496 ft | 489 kts | 25° |
| 2026-04-30 11:02 | 22.58547 | -21.16024 | 34843 ft | 487 kts | 25° |
| 2026-04-30 11:02 | 22.61437 | -21.14084 | 35154 ft | 486 kts | 24° |
| 2026-04-30 11:03 | 22.64297 | -21.12165 | 35416 ft | 486 kts | 24° |
| 2026-04-30 11:03 | 22.67163 | -21.10242 | 35621 ft | 487 kts | 24° |
| 2026-04-30 11:03 | 22.70034 | -21.08313 | 35879 ft | 486 kts | 24° |
| 2026-04-30 11:04 | 22.75793 | -21.04435 | 36444 ft | 484 kts | 24° |
| 2026-04-30 11:04 | 22.78629 | -21.02527 | 36689 ft | 483 kts | 24° |
| 2026-04-30 11:04 | 22.81474 | -21.00612 | 36877 ft | 483 kts | 23° |
| 2026-04-30 11:04 | 22.84349 | -20.98679 | 37056 ft | 484 kts | 24° |
| 2026-04-30 11:05 | 22.87186 | -20.96765 | 37296 ft | 483 kts | 23° |
| 2026-04-30 11:05 | 22.90048 | -20.94834 | 37550 ft | 481 kts | 23° |
| 2026-04-30 11:05 | 22.92905 | -20.92905 | 37745 ft | 481 kts | 23° |
| 2026-04-30 11:05 | 22.95730 | -20.91001 | 37899 ft | 481 kts | 23° |
| 2026-04-30 11:06 | 22.98587 | -20.89071 | 38126 ft | 480 kts | 23° |
| 2026-04-30 11:06 | 23.01388 | -20.87176 | 38339 ft | 478 kts | 22° |
| 2026-04-30 11:06 | 23.04232 | -20.85254 | 38480 ft | 478 kts | 22° |
| 2026-04-30 11:07 | 23.09905 | -20.81417 | 38700 ft | 480 kts | 22° |
| 2026-04-30 11:07 | 23.12720 | -20.79504 | 38883 ft | 480 kts | 22° |
| 2026-04-30 11:07 | 23.15562 | -20.77583 | 39056 ft | 479 kts | 22° |
| 2026-04-30 11:08 | 23.21234 | -20.73736 | 39107 ft | 480 kts | 22° |
| 2026-04-30 11:08 | 23.26860 | -20.69913 | 39112 ft | 479 kts | 21° |
| 2026-04-30 11:09 | 23.32528 | -20.66078 | 39111 ft | 477 kts | 22° |
| 2026-04-30 11:09 | 23.38180 | -20.62234 | 39110 ft | 477 kts | 22° |
| 2026-04-30 11:10 | 23.43798 | -20.58413 | 39110 ft | 479 kts | 22° |
| 2026-04-30 11:10 | 23.49424 | -20.54572 | 39108 ft | 477 kts | 23° |
| 2026-04-30 11:11 | 23.55036 | -20.50729 | 39115 ft | 477 kts | 22° |
| 2026-04-30 11:11 | 23.60680 | -20.46889 | 39111 ft | 476 kts | 22° |
| 2026-04-30 11:12 | 23.66309 | -20.43038 | 39111 ft | 477 kts | 22° |
| 2026-04-30 11:12 | 23.71947 | -20.39178 | 39105 ft | 477 kts | 23° |
| 2026-04-30 11:13 | 23.77570 | -20.35338 | 39109 ft | 477 kts | 23° |
| 2026-04-30 11:13 | 23.83186 | -20.31465 | 39107 ft | 478 kts | 23° |
| 2026-04-30 11:14 | 23.88819 | -20.27606 | 39109 ft | 477 kts | 23° |
| 2026-04-30 11:14 | 23.94431 | -20.23745 | 39107 ft | 477 kts | 23° |
| 2026-04-30 11:15 | 24.00030 | -20.19893 | 39115 ft | 475 kts | 23° |
| 2026-04-30 11:15 | 24.05674 | -20.16016 | 39104 ft | 477 kts | 23° |
| 2026-04-30 11:16 | 24.11299 | -20.12145 | 39116 ft | 476 kts | 24° |
| 2026-04-30 11:16 | 24.16908 | -20.08265 | 39118 ft | 479 kts | 24° |
| 2026-04-30 11:17 | 24.22529 | -20.04380 | 39112 ft | 479 kts | 24° |
| 2026-04-30 11:17 | 24.28153 | -20.00485 | 39111 ft | 477 kts | 24° |
| 2026-04-30 11:18 | 24.33811 | -19.96582 | 39120 ft | 477 kts | 24° |
| 2026-04-30 11:18 | 24.42251 | -19.90731 | 39121 ft | 478 kts | 24° |
| 2026-04-30 11:19 | 24.47852 | -19.86840 | 39123 ft | 478 kts | 24° |
| 2026-04-30 11:19 | 24.53484 | -19.82928 | 39113 ft | 479 kts | 24° |
| 2026-04-30 11:20 | 24.59126 | -19.79000 | 39126 ft | 478 kts | 24° |
| 2026-04-30 11:20 | 24.64742 | -19.75090 | 39120 ft | 479 kts | 24° |
| 2026-04-30 11:21 | 24.70384 | -19.71157 | 39121 ft | 480 kts | 24° |
| 2026-04-30 11:21 | 24.76055 | -19.67199 | 39112 ft | 480 kts | 24° |
| 2026-04-30 11:22 | 24.81670 | -19.63279 | 39118 ft | 482 kts | 24° |
| 2026-04-30 11:22 | 24.87339 | -19.59311 | 39109 ft | 481 kts | 24° |
| 2026-04-30 11:23 | 24.92978 | -19.55366 | 39124 ft | 481 kts | 25° |
| 2026-04-30 11:24 | 25.01451 | -19.49430 | 39120 ft | 482 kts | 25° |
| 2026-04-30 11:24 | 25.07124 | -19.45441 | 39109 ft | 482 kts | 25° |
| 2026-04-30 11:25 | 25.15609 | -19.39471 | 39119 ft | 483 kts | 25° |
| 2026-04-30 11:26 | 25.26943 | -19.31482 | 39114 ft | 482 kts | 25° |
| 2026-04-30 11:26 | 25.32597 | -19.27492 | 39113 ft | 482 kts | 26° |
| 2026-04-30 11:27 | 25.38235 | -19.23508 | 39126 ft | 481 kts | 25° |
| 2026-04-30 11:27 | 25.43892 | -19.19507 | 39117 ft | 482 kts | 25° |
| 2026-04-30 11:28 | 25.52361 | -19.13506 | 39113 ft | 483 kts | 25° |
| 2026-04-30 11:29 | 25.58009 | -19.09502 | 39118 ft | 483 kts | 26° |
| 2026-04-30 11:29 | 25.66489 | -19.03478 | 39113 ft | 483 kts | 26° |
| 2026-04-30 11:30 | 25.74980 | -18.97435 | 39119 ft | 482 kts | 26° |
| 2026-04-30 11:31 | 25.80487 | -18.93510 | 39114 ft | 482 kts | 26° |
| 2026-04-30 11:31 | 25.86101 | -18.89506 | 39119 ft | 480 kts | 26° |
| 2026-04-30 11:32 | 25.91746 | -18.85477 | 39119 ft | 482 kts | 26° |
| 2026-04-30 11:32 | 25.97384 | -18.81444 | 39124 ft | 482 kts | 26° |
| 2026-04-30 11:33 | 26.05862 | -18.75369 | 39114 ft | 483 kts | 26° |
| 2026-04-30 11:33 | 26.11496 | -18.71326 | 39121 ft | 482 kts | 26° |
| 2026-04-30 11:34 | 26.17130 | -18.67280 | 39117 ft | 482 kts | 26° |
| 2026-04-30 11:34 | 26.22761 | -18.63232 | 39110 ft | 482 kts | 26° |
| 2026-04-30 11:35 | 26.28425 | -18.59158 | 39113 ft | 484 kts | 26° |
| 2026-04-30 11:35 | 26.34083 | -18.55079 | 39117 ft | 485 kts | 26° |
| 2026-04-30 11:36 | 26.39732 | -18.51002 | 39119 ft | 483 kts | 26° |
| 2026-04-30 11:36 | 26.45374 | -18.46928 | 39117 ft | 484 kts | 26° |
| 2026-04-30 11:37 | 26.51023 | -18.42844 | 39116 ft | 485 kts | 26° |
| 2026-04-30 11:37 | 26.56672 | -18.38754 | 39117 ft | 484 kts | 26° |
| 2026-04-30 11:38 | 26.62316 | -18.34664 | 39115 ft | 484 kts | 26° |
| 2026-04-30 11:38 | 26.68003 | -18.30537 | 39113 ft | 485 kts | 26° |
| 2026-04-30 11:39 | 26.73664 | -18.26424 | 39114 ft | 485 kts | 26° |
| 2026-04-30 11:39 | 26.79306 | -18.22319 | 39112 ft | 484 kts | 26° |
| 2026-04-30 11:40 | 26.84938 | -18.18219 | 39114 ft | 485 kts | 26° |
| 2026-04-30 11:40 | 26.90587 | -18.14098 | 39110 ft | 486 kts | 26° |
| 2026-04-30 11:41 | 26.96278 | -18.09943 | 39111 ft | 486 kts | 27° |
| 2026-04-30 11:41 | 27.01938 | -18.05804 | 39109 ft | 486 kts | 26° |
| 2026-04-30 11:42 | 27.07592 | -18.01665 | 39109 ft | 486 kts | 27° |
| 2026-04-30 11:42 | 27.13279 | -17.97497 | 39108 ft | 485 kts | 26° |
| 2026-04-30 11:43 | 27.18916 | -17.93363 | 39117 ft | 485 kts | 26° |
| 2026-04-30 11:43 | 27.24550 | -17.89225 | 39107 ft | 484 kts | 26° |
| 2026-04-30 11:44 | 27.30170 | -17.85090 | 39117 ft | 483 kts | 26° |
| 2026-04-30 11:44 | 27.35809 | -17.80940 | 39110 ft | 485 kts | 26° |
| 2026-04-30 11:45 | 27.41435 | -17.76793 | 39109 ft | 485 kts | 26° |
| 2026-04-30 11:45 | 27.47054 | -17.72642 | 39114 ft | 484 kts | 26° |
| 2026-04-30 11:46 | 27.52708 | -17.68465 | 39113 ft | 484 kts | 26° |
| 2026-04-30 11:46 | 27.58291 | -17.64333 | 39113 ft | 484 kts | 26° |
| 2026-04-30 11:47 | 27.63933 | -17.60151 | 39113 ft | 482 kts | 26° |
| 2026-04-30 11:47 | 27.69531 | -17.56002 | 39110 ft | 483 kts | 26° |
| 2026-04-30 11:48 | 27.75140 | -17.51837 | 39113 ft | 483 kts | 26° |
| 2026-04-30 11:48 | 27.80753 | -17.47662 | 39114 ft | 483 kts | 26° |
| 2026-04-30 11:49 | 27.86363 | -17.43486 | 39113 ft | 482 kts | 26° |
| 2026-04-30 11:49 | 27.91957 | -17.39315 | 39109 ft | 482 kts | 26° |
| 2026-04-30 11:50 | 27.97558 | -17.35134 | 39108 ft | 482 kts | 26° |
| 2026-04-30 11:50 | 28.03311 | -17.31309 | 39112 ft | 477 kts | 20° |
| 2026-04-30 11:51 | 28.09182 | -17.27820 | 39115 ft | 477 kts | 20° |
| 2026-04-30 11:51 | 28.15077 | -17.24331 | 39097 ft | 476 kts | 20° |
| 2026-04-30 11:52 | 28.20960 | -17.20836 | 39106 ft | 477 kts | 20° |
| 2026-04-30 11:52 | 28.26828 | -17.17340 | 39116 ft | 476 kts | 20° |
| 2026-04-30 11:53 | 28.32652 | -17.13865 | 39116 ft | 476 kts | 20° |
| 2026-04-30 11:53 | 28.38524 | -17.10354 | 39112 ft | 476 kts | 20° |
| 2026-04-30 11:54 | 28.44396 | -17.06839 | 39112 ft | 475 kts | 20° |
| 2026-04-30 11:54 | 28.50211 | -17.03355 | 39110 ft | 475 kts | 20° |
| 2026-04-30 11:55 | 28.56070 | -16.99841 | 39113 ft | 475 kts | 20° |
| 2026-04-30 11:55 | 28.61931 | -16.96318 | 39113 ft | 475 kts | 20° |
| 2026-04-30 11:56 | 28.67747 | -16.92823 | 39116 ft | 474 kts | 20° |
| 2026-04-30 11:56 | 28.73610 | -16.89290 | 39112 ft | 475 kts | 20° |
| 2026-04-30 11:57 | 28.79448 | -16.85769 | 39115 ft | 475 kts | 20° |
| 2026-04-30 11:57 | 28.85257 | -16.82255 | 39112 ft | 473 kts | 20° |
| 2026-04-30 11:58 | 28.91113 | -16.78713 | 39112 ft | 474 kts | 20° |
| 2026-04-30 11:58 | 28.96932 | -16.75191 | 39112 ft | 474 kts | 20° |
| 2026-04-30 11:59 | 29.02766 | -16.71656 | 39113 ft | 475 kts | 20° |
| 2026-04-30 11:59 | 29.08593 | -16.68121 | 39111 ft | 475 kts | 20° |
| 2026-04-30 12:00 | 29.14409 | -16.64587 | 39110 ft | 474 kts | 20° |
| 2026-04-30 12:00 | 29.20261 | -16.61024 | 39112 ft | 474 kts | 20° |
| 2026-04-30 12:01 | 29.26091 | -16.57473 | 39107 ft | 475 kts | 20° |
| 2026-04-30 12:01 | 29.31879 | -16.53942 | 39110 ft | 475 kts | 20° |
| 2026-04-30 12:02 | 29.37726 | -16.50372 | 39111 ft | 475 kts | 20° |
| 2026-04-30 12:02 | 29.43554 | -16.46806 | 39113 ft | 473 kts | 20° |
| 2026-04-30 12:03 | 29.52291 | -16.41456 | 39127 ft | 474 kts | 20° |
| 2026-04-30 12:04 | 29.58088 | -16.37900 | 39128 ft | 474 kts | 20° |
| 2026-04-30 12:04 | 29.63912 | -16.34317 | 39125 ft | 474 kts | 21° |
| 2026-04-30 12:05 | 29.69706 | -16.30751 | 39128 ft | 474 kts | 21° |
| 2026-04-30 12:05 | 29.75528 | -16.27162 | 39129 ft | 474 kts | 21° |
| 2026-04-30 12:06 | 29.81348 | -16.23571 | 39124 ft | 474 kts | 21° |
| 2026-04-30 12:06 | 29.87169 | -16.19977 | 39127 ft | 473 kts | 21° |
| 2026-04-30 12:07 | 29.92915 | -16.16421 | 39126 ft | 471 kts | 21° |
| 2026-04-30 12:07 | 29.98711 | -16.12832 | 39127 ft | 471 kts | 21° |
| 2026-04-30 12:08 | 30.04485 | -16.09250 | 39127 ft | 470 kts | 21° |
| 2026-04-30 12:08 | 30.10213 | -16.05692 | 39126 ft | 470 kts | 21° |
| 2026-04-30 12:09 | 30.15975 | -16.02110 | 39128 ft | 470 kts | 21° |
| 2026-04-30 12:09 | 30.21720 | -15.98533 | 39130 ft | 470 kts | 21° |
| 2026-04-30 12:10 | 30.27500 | -15.94932 | 39124 ft | 470 kts | 21° |
| 2026-04-30 12:10 | 30.33242 | -15.91350 | 39128 ft | 467 kts | 21° |
| 2026-04-30 12:11 | 30.38954 | -15.87780 | 39124 ft | 467 kts | 20° |
| 2026-04-30 12:11 | 30.44664 | -15.84208 | 39125 ft | 468 kts | 21° |
| 2026-04-30 12:12 | 30.50399 | -15.80609 | 39125 ft | 467 kts | 21° |
| 2026-04-30 12:12 | 30.56103 | -15.77026 | 39126 ft | 468 kts | 20° |
| 2026-04-30 12:13 | 30.61828 | -15.73424 | 39119 ft | 466 kts | 20° |
| 2026-04-30 12:13 | 30.67508 | -15.69849 | 39121 ft | 467 kts | 21° |
| 2026-04-30 12:14 | 30.73203 | -15.66262 | 39123 ft | 467 kts | 21° |
| 2026-04-30 12:14 | 30.78909 | -15.62660 | 39120 ft | 466 kts | 21° |
| 2026-04-30 12:15 | 30.84606 | -15.59057 | 39120 ft | 466 kts | 21° |
| 2026-04-30 12:15 | 30.90316 | -15.55443 | 39122 ft | 466 kts | 20° |
| 2026-04-30 12:16 | 30.95960 | -15.51866 | 39122 ft | 464 kts | 20° |
| 2026-04-30 12:16 | 31.01632 | -15.48269 | 39120 ft | 464 kts | 21° |
| 2026-04-30 12:17 | 31.10156 | -15.42852 | 39120 ft | 464 kts | 21° |
| 2026-04-30 12:17 | 31.15837 | -15.39235 | 39119 ft | 464 kts | 21° |
| 2026-04-30 12:18 | 31.21503 | -15.35623 | 39122 ft | 464 kts | 21° |
| 2026-04-30 12:18 | 31.27139 | -15.32022 | 39120 ft | 464 kts | 21° |
| 2026-04-30 12:19 | 31.32711 | -15.28125 | 39122 ft | 469 kts | 26° |
| 2026-04-30 12:19 | 31.38159 | -15.23908 | 39123 ft | 469 kts | 26° |
| 2026-04-30 12:20 | 31.43552 | -15.19708 | 39125 ft | 467 kts | 26° |
| 2026-04-30 12:20 | 31.48995 | -15.15476 | 39123 ft | 468 kts | 26° |
| 2026-04-30 12:21 | 31.54406 | -15.11263 | 39126 ft | 469 kts | 26° |
| 2026-04-30 12:21 | 31.59819 | -15.07045 | 39125 ft | 468 kts | 26° |
| 2026-04-30 12:22 | 31.65225 | -15.02829 | 39125 ft | 467 kts | 26° |
| 2026-04-30 12:22 | 31.70658 | -14.98582 | 39129 ft | 466 kts | 26° |
| 2026-04-30 12:23 | 31.76032 | -14.94378 | 39128 ft | 467 kts | 26° |
| 2026-04-30 12:23 | 31.81434 | -14.90149 | 39129 ft | 467 kts | 26° |
| 2026-04-30 12:24 | 31.86835 | -14.85913 | 39129 ft | 467 kts | 26° |
| 2026-04-30 12:24 | 31.92225 | -14.81676 | 39128 ft | 466 kts | 26° |
| 2026-04-30 12:25 | 31.97599 | -14.77446 | 39128 ft | 464 kts | 26° |
| 2026-04-30 12:25 | 32.02961 | -14.73223 | 39131 ft | 463 kts | 26° |
| 2026-04-30 12:26 | 32.08329 | -14.68988 | 39131 ft | 464 kts | 26° |
| 2026-04-30 12:26 | 32.13671 | -14.64767 | 39127 ft | 463 kts | 26° |
| 2026-04-30 12:27 | 32.19043 | -14.60514 | 39128 ft | 464 kts | 26° |
| 2026-04-30 12:27 | 32.24370 | -14.56293 | 39128 ft | 464 kts | 26° |
| 2026-04-30 12:28 | 32.29711 | -14.52055 | 39128 ft | 463 kts | 26° |
| 2026-04-30 12:28 | 32.35063 | -14.47805 | 39126 ft | 464 kts | 26° |
| 2026-04-30 12:29 | 32.40405 | -14.43554 | 39125 ft | 464 kts | 26° |
| 2026-04-30 12:29 | 32.45754 | -14.39290 | 39124 ft | 464 kts | 26° |
| 2026-04-30 12:30 | 32.51113 | -14.35013 | 39122 ft | 465 kts | 26° |
| 2026-04-30 12:30 | 32.56482 | -14.30720 | 39123 ft | 464 kts | 26° |
| 2026-04-30 12:31 | 32.61818 | -14.26448 | 39124 ft | 464 kts | 26° |
| 2026-04-30 12:31 | 32.67147 | -14.22178 | 39126 ft | 465 kts | 26° |
| 2026-04-30 12:32 | 32.72523 | -14.17862 | 39123 ft | 465 kts | 26° |
| 2026-04-30 12:32 | 32.77849 | -14.13581 | 39126 ft | 464 kts | 26° |
| 2026-04-30 12:33 | 32.83216 | -14.09261 | 39126 ft | 464 kts | 26° |
| 2026-04-30 12:33 | 32.88533 | -14.04972 | 39122 ft | 463 kts | 26° |
| 2026-04-30 12:34 | 32.93843 | -14.00682 | 39127 ft | 464 kts | 26° |
| 2026-04-30 12:34 | 32.99210 | -13.96346 | 39127 ft | 464 kts | 26° |
| 2026-04-30 12:35 | 33.04530 | -13.92037 | 39126 ft | 464 kts | 26° |
| 2026-04-30 12:35 | 33.09834 | -13.87735 | 39130 ft | 463 kts | 26° |
| 2026-04-30 12:36 | 33.15174 | -13.83398 | 39130 ft | 463 kts | 27° |
| 2026-04-30 12:36 | 33.20472 | -13.79059 | 39125 ft | 462 kts | 27° |
| 2026-04-30 12:37 | 33.25751 | -13.74723 | 39125 ft | 463 kts | 27° |
| 2026-04-30 12:37 | 33.31046 | -13.70370 | 39126 ft | 463 kts | 27° |
| 2026-04-30 12:38 | 33.36351 | -13.66005 | 39126 ft | 463 kts | 27° |
| 2026-04-30 12:38 | 33.41638 | -13.61649 | 39126 ft | 462 kts | 27° |
| 2026-04-30 12:39 | 33.46918 | -13.57291 | 39126 ft | 462 kts | 27° |
| 2026-04-30 12:39 | 33.52213 | -13.52914 | 39125 ft | 461 kts | 27° |
| 2026-04-30 12:40 | 33.57496 | -13.48542 | 39122 ft | 461 kts | 27° |
| 2026-04-30 12:40 | 33.62748 | -13.44189 | 39121 ft | 461 kts | 27° |
| 2026-04-30 12:41 | 33.68008 | -13.39821 | 39123 ft | 461 kts | 27° |
| 2026-04-30 12:41 | 33.73313 | -13.35410 | 39124 ft | 461 kts | 27° |
| 2026-04-30 12:42 | 33.78571 | -13.31032 | 39118 ft | 461 kts | 27° |
| 2026-04-30 12:42 | 33.83817 | -13.26658 | 39123 ft | 461 kts | 27° |
| 2026-04-30 12:43 | 33.89093 | -13.22252 | 39119 ft | 461 kts | 28° |
| 2026-04-30 12:43 | 33.94355 | -13.17847 | 39120 ft | 461 kts | 28° |
| 2026-04-30 12:44 | 33.99616 | -13.13439 | 39122 ft | 460 kts | 28° |
| 2026-04-30 12:44 | 34.04863 | -13.09037 | 39127 ft | 461 kts | 27° |
| 2026-04-30 12:45 | 34.10115 | -13.04625 | 39126 ft | 462 kts | 27° |
| 2026-04-30 12:45 | 34.15374 | -13.00202 | 39127 ft | 461 kts | 28° |
| 2026-04-30 12:46 | 34.20632 | -12.95771 | 39120 ft | 464 kts | 28° |
| 2026-04-30 12:46 | 34.25935 | -12.91296 | 39121 ft | 465 kts | 28° |
| 2026-04-30 12:47 | 34.31241 | -12.86839 | 39121 ft | 465 kts | 27° |
| 2026-04-30 12:47 | 34.36551 | -12.82392 | 39119 ft | 463 kts | 28° |
| 2026-04-30 12:48 | 34.41835 | -12.77961 | 39114 ft | 464 kts | 28° |
| 2026-04-30 12:48 | 34.47154 | -12.73490 | 39111 ft | 465 kts | 28° |
| 2026-04-30 12:49 | 34.52439 | -12.69038 | 39116 ft | 466 kts | 28° |
| 2026-04-30 12:49 | 34.57789 | -12.64526 | 39055 ft | 467 kts | 28° |
| 2026-04-30 12:50 | 34.63102 | -12.60037 | 39106 ft | 468 kts | 28° |
| 2026-04-30 12:50 | 34.68460 | -12.55506 | 39109 ft | 468 kts | 28° |
| 2026-04-30 12:51 | 34.73785 | -12.50993 | 39111 ft | 470 kts | 28° |
| 2026-04-30 12:51 | 34.79146 | -12.46442 | 39108 ft | 471 kts | 28° |
| 2026-04-30 12:52 | 34.84524 | -12.41872 | 39104 ft | 471 kts | 28° |
| 2026-04-30 12:52 | 34.89860 | -12.37330 | 39107 ft | 470 kts | 28° |
| 2026-04-30 12:53 | 34.95252 | -12.32733 | 39099 ft | 472 kts | 30° |
| 2026-04-30 12:53 | 35.00603 | -12.28160 | 39106 ft | 473 kts | 29° |
| 2026-04-30 12:54 | 35.05971 | -12.23566 | 39101 ft | 472 kts | 30° |
| 2026-04-30 12:54 | 35.11378 | -12.18935 | 39106 ft | 474 kts | 30° |
| 2026-04-30 12:55 | 35.16752 | -12.14322 | 39103 ft | 473 kts | 30° |
| 2026-04-30 12:55 | 35.22125 | -12.09698 | 39102 ft | 474 kts | 30° |
| 2026-04-30 12:56 | 35.27512 | -12.05058 | 39107 ft | 476 kts | 30° |
| 2026-04-30 12:56 | 35.32909 | -12.00405 | 39096 ft | 476 kts | 30° |
| 2026-04-30 12:57 | 35.38311 | -11.95740 | 39101 ft | 477 kts | 30° |
| 2026-04-30 12:57 | 35.43750 | -11.91029 | 39104 ft | 478 kts | 30° |
| 2026-04-30 12:58 | 35.49173 | -11.86335 | 39105 ft | 479 kts | 31° |
| 2026-04-30 12:58 | 35.54597 | -11.81627 | 39103 ft | 480 kts | 31° |
| 2026-04-30 12:59 | 35.60055 | -11.76874 | 39106 ft | 481 kts | 31° |
| 2026-04-30 12:59 | 35.65499 | -11.72132 | 39106 ft | 480 kts | 31° |
| 2026-04-30 13:00 | 35.70932 | -11.67391 | 39104 ft | 481 kts | 31° |
| 2026-04-30 13:00 | 35.76363 | -11.62641 | 39106 ft | 481 kts | 31° |
| 2026-04-30 13:01 | 35.81853 | -11.57834 | 39104 ft | 482 kts | 32° |
| 2026-04-30 13:01 | 35.87309 | -11.53048 | 39106 ft | 483 kts | 32° |
| 2026-04-30 13:02 | 35.92754 | -11.48261 | 39104 ft | 484 kts | 32° |
| 2026-04-30 13:02 | 35.98253 | -11.43418 | 39107 ft | 484 kts | 32° |
| 2026-04-30 13:03 | 36.03705 | -11.38593 | 39105 ft | 484 kts | 32° |
| 2026-04-30 13:03 | 36.09157 | -11.33756 | 39104 ft | 485 kts | 33° |
| 2026-04-30 13:04 | 36.14662 | -11.28869 | 39104 ft | 485 kts | 33° |
| 2026-04-30 13:04 | 36.20108 | -11.24026 | 39104 ft | 486 kts | 33° |
| 2026-04-30 13:05 | 36.25597 | -11.19138 | 39106 ft | 486 kts | 33° |
| 2026-04-30 13:06 | 36.33816 | -11.11801 | 39103 ft | 487 kts | 33° |
| 2026-04-30 13:06 | 36.39328 | -11.06868 | 39102 ft | 487 kts | 33° |
| 2026-04-30 13:07 | 36.44788 | -11.01973 | 39102 ft | 487 kts | 33° |
| 2026-04-30 13:07 | 36.50275 | -10.97045 | 39102 ft | 487 kts | 34° |
| 2026-04-30 13:08 | 36.55763 | -10.92108 | 39103 ft | 488 kts | 33° |
| 2026-04-30 13:08 | 36.61262 | -10.87154 | 39102 ft | 489 kts | 34° |
| 2026-04-30 13:09 | 36.66765 | -10.82186 | 39107 ft | 490 kts | 34° |
| 2026-04-30 13:09 | 36.72252 | -10.77221 | 39102 ft | 489 kts | 34° |
| 2026-04-30 13:10 | 36.77781 | -10.72214 | 39107 ft | 490 kts | 34° |
| 2026-04-30 13:10 | 36.83276 | -10.67225 | 39107 ft | 489 kts | 34° |
| 2026-04-30 13:11 | 36.88745 | -10.62253 | 39106 ft | 489 kts | 34° |
| 2026-04-30 13:11 | 36.94274 | -10.57216 | 39106 ft | 489 kts | 35° |
| 2026-04-30 13:12 | 36.99737 | -10.52227 | 39107 ft | 491 kts | 35° |
| 2026-04-30 13:12 | 37.05249 | -10.47187 | 39110 ft | 490 kts | 35° |
| 2026-04-30 13:13 | 37.13516 | -10.39611 | 39109 ft | 490 kts | 35° |
| 2026-04-30 13:14 | 37.21783 | -10.32014 | 39110 ft | 491 kts | 36° |
| 2026-04-30 13:14 | 37.30056 | -10.24392 | 39111 ft | 492 kts | 36° |
| 2026-04-30 13:15 | 37.38272 | -10.16799 | 39111 ft | 491 kts | 36° |
| 2026-04-30 13:16 | 37.43768 | -10.11706 | 39114 ft | 490 kts | 36° |
| 2026-04-30 13:16 | 37.49240 | -10.06627 | 39108 ft | 490 kts | 36° |
| 2026-04-30 13:17 | 37.57452 | -9.98992 | 39110 ft | 490 kts | 36° |
| 2026-04-30 13:18 | 37.65656 | -9.91337 | 39107 ft | 491 kts | 36° |
| 2026-04-30 13:18 | 37.73885 | -9.83639 | 39109 ft | 491 kts | 36° |
| 2026-04-30 13:19 | 37.79367 | -9.78501 | 39108 ft | 491 kts | 37° |
| 2026-04-30 13:19 | 37.84839 | -9.73362 | 39100 ft | 490 kts | 37° |
| 2026-04-30 13:20 | 37.90284 | -9.68237 | 39094 ft | 489 kts | 37° |
| 2026-04-30 13:20 | 37.95738 | -9.63097 | 39092 ft | 489 kts | 37° |
| 2026-04-30 13:21 | 38.01172 | -9.57961 | 39093 ft | 490 kts | 37° |
| 2026-04-30 13:22 | 38.09358 | -9.50180 | 39088 ft | 491 kts | 37° |
| 2026-04-30 13:22 | 38.17537 | -9.42386 | 39085 ft | 491 kts | 37° |
| 2026-04-30 13:23 | 38.25729 | -9.34560 | 39085 ft | 490 kts | 38° |
| 2026-04-30 13:24 | 38.36594 | -9.24147 | 39090 ft | 489 kts | 37° |
| 2026-04-30 13:25 | 38.47294 | -9.13447 | 39096 ft | 490 kts | 40° |
| 2026-04-30 13:26 | 38.60403 | -8.99557 | 39099 ft | 490 kts | 40° |
| 2026-04-30 13:28 | 38.73486 | -8.85663 | 39102 ft | 490 kts | 40° |
| 2026-04-30 13:28 | 38.81313 | -8.77318 | 39104 ft | 490 kts | 40° |
| 2026-04-30 13:29 | 38.91772 | -8.66133 | 39104 ft | 489 kts | 40° |
| 2026-04-30 13:31 | 39.04785 | -8.52153 | 39093 ft | 489 kts | 40° |
| 2026-04-30 13:32 | 39.17783 | -8.38107 | 39095 ft | 489 kts | 41° |
| 2026-04-30 13:33 | 39.28065 | -8.26608 | 39098 ft | 488 kts | 42° |
| 2026-04-30 13:34 | 39.35725 | -8.18012 | 39104 ft | 488 kts | 42° |
| 2026-04-30 13:35 | 39.45928 | -8.06535 | 39101 ft | 488 kts | 42° |
| 2026-04-30 13:36 | 39.56154 | -7.94986 | 39093 ft | 488 kts | 42° |
| 2026-04-30 13:36 | 39.63797 | -7.86325 | 39102 ft | 488 kts | 42° |
| 2026-04-30 13:37 | 39.71434 | -7.77643 | 39100 ft | 488 kts | 42° |
| 2026-04-30 13:38 | 39.79082 | -7.68927 | 39097 ft | 489 kts | 42° |
| 2026-04-30 13:39 | 39.89278 | -7.57204 | 39097 ft | 489 kts | 42° |
| 2026-04-30 13:40 | 39.96870 | -7.48421 | 39098 ft | 488 kts | 42° |
| 2026-04-30 13:40 | 40.01933 | -7.42550 | 39097 ft | 489 kts | 42° |
| 2026-04-30 13:41 | 40.07011 | -7.36652 | 39096 ft | 489 kts | 42° |
| 2026-04-30 13:41 | 40.12081 | -7.30750 | 39088 ft | 489 kts | 43° |
| 2026-04-30 13:42 | 40.17209 | -7.24768 | 39088 ft | 490 kts | 43° |
| 2026-04-30 13:42 | 40.24821 | -7.15868 | 39094 ft | 490 kts | 43° |
| 2026-04-30 13:43 | 40.29891 | -7.09927 | 39093 ft | 489 kts | 42° |
| 2026-04-30 13:43 | 40.34976 | -7.04037 | 39092 ft | 489 kts | 42° |
| 2026-04-30 13:44 | 40.40074 | -6.98137 | 39091 ft | 489 kts | 42° |
| 2026-04-30 13:44 | 40.45181 | -6.92209 | 39090 ft | 490 kts | 41° |
| 2026-04-30 13:45 | 40.52808 | -6.83329 | 39095 ft | 490 kts | 41° |
| 2026-04-30 13:46 | 40.57878 | -6.77411 | 39095 ft | 491 kts | 42° |
| 2026-04-30 13:46 | 40.62981 | -6.71437 | 39091 ft | 491 kts | 42° |
| 2026-04-30 13:47 | 40.68055 | -6.65484 | 39091 ft | 491 kts | 42° |
| 2026-04-30 13:47 | 40.73141 | -6.59507 | 39088 ft | 491 kts | 41° |
| 2026-04-30 13:48 | 40.78243 | -6.53502 | 39088 ft | 491 kts | 41° |
| 2026-04-30 13:48 | 40.83316 | -6.47518 | 39088 ft | 492 kts | 41° |
| 2026-04-30 13:49 | 40.88414 | -6.41496 | 39087 ft | 491 kts | 41° |
| 2026-04-30 13:49 | 40.93492 | -6.35481 | 39088 ft | 491 kts | 41° |
| 2026-04-30 13:50 | 40.98610 | -6.29405 | 39088 ft | 492 kts | 42° |
| 2026-04-30 13:50 | 41.06271 | -6.20274 | 39084 ft | 492 kts | 42° |
| 2026-04-30 13:51 | 41.11374 | -6.14176 | 39081 ft | 493 kts | 42° |
| 2026-04-30 13:51 | 41.16444 | -6.08108 | 39080 ft | 492 kts | 42° |
| 2026-04-30 13:52 | 41.21491 | -6.02055 | 39083 ft | 491 kts | 42° |
| 2026-04-30 13:52 | 41.26576 | -5.95943 | 39086 ft | 492 kts | 41° |
| 2026-04-30 13:53 | 41.31632 | -5.89854 | 39089 ft | 492 kts | 41° |
| 2026-04-30 13:53 | 41.36690 | -5.83753 | 39085 ft | 491 kts | 41° |
| 2026-04-30 13:54 | 41.41707 | -5.77687 | 39085 ft | 491 kts | 41° |
| 2026-04-30 13:54 | 41.46782 | -5.71576 | 39084 ft | 491 kts | 39° |
| 2026-04-30 13:55 | 41.52171 | -5.66029 | 39080 ft | 491 kts | 33° |
| 2026-04-30 13:55 | 41.57995 | -5.61347 | 39086 ft | 489 kts | 25° |
| 2026-04-30 13:56 | 41.64149 | -5.57551 | 39084 ft | 488 kts | 20° |
| 2026-04-30 13:56 | 41.70415 | -5.54053 | 39084 ft | 488 kts | 20° |
| 2026-04-30 13:57 | 41.76659 | -5.50555 | 39085 ft | 488 kts | 20° |
| 2026-04-30 13:57 | 41.82874 | -5.47045 | 39085 ft | 487 kts | 20° |
| 2026-04-30 13:58 | 41.92204 | -5.41747 | 39091 ft | 486 kts | 20° |
| 2026-04-30 13:59 | 41.98456 | -5.38186 | 39093 ft | 486 kts | 20° |
| 2026-04-30 13:59 | 42.04680 | -5.34633 | 39100 ft | 487 kts | 21° |
| 2026-04-30 14:00 | 42.10940 | -5.31051 | 39100 ft | 488 kts | 21° |
| 2026-04-30 14:00 | 42.20359 | -5.25648 | 39104 ft | 487 kts | 20° |
| 2026-04-30 14:01 | 42.26577 | -5.22072 | 39104 ft | 487 kts | 20° |
| 2026-04-30 14:01 | 42.32830 | -5.18466 | 39111 ft | 486 kts | 20° |
| 2026-04-30 14:02 | 42.39002 | -5.14903 | 39112 ft | 485 kts | 20° |
| 2026-04-30 14:02 | 42.45204 | -5.11314 | 39113 ft | 485 kts | 20° |
| 2026-04-30 14:03 | 42.51371 | -5.07738 | 39119 ft | 485 kts | 20° |
| 2026-04-30 14:03 | 42.57596 | -5.04122 | 39123 ft | 484 kts | 20° |
| 2026-04-30 14:04 | 42.63737 | -5.00547 | 39124 ft | 484 kts | 20° |
| 2026-04-30 14:04 | 42.69904 | -4.96941 | 39128 ft | 484 kts | 20° |
| 2026-04-30 14:05 | 42.76100 | -4.93303 | 39126 ft | 484 kts | 20° |
| 2026-04-30 14:05 | 42.82274 | -4.89675 | 39126 ft | 483 kts | 20° |
| 2026-04-30 14:06 | 42.91634 | -4.84164 | 39134 ft | 483 kts | 20° |
| 2026-04-30 14:07 | 43.00834 | -4.78732 | 39124 ft | 483 kts | 20° |
| 2026-04-30 14:08 | 43.10066 | -4.73263 | 39125 ft | 482 kts | 20° |
| 2026-04-30 14:08 | 43.19260 | -4.67800 | 39123 ft | 482 kts | 20° |
| 2026-04-30 14:09 | 43.25378 | -4.64154 | 39119 ft | 481 kts | 20° |
| 2026-04-30 14:10 | 43.34554 | -4.58671 | 39106 ft | 481 kts | 20° |
| 2026-04-30 14:10 | 43.40683 | -4.55002 | 39090 ft | 480 kts | 20° |
| 2026-04-30 14:11 | 43.46788 | -4.51337 | 39080 ft | 480 kts | 20° |
| 2026-04-30 14:11 | 43.52901 | -4.47652 | 39073 ft | 480 kts | 20° |
| 2026-04-30 14:12 | 43.59000 | -4.43966 | 39077 ft | 479 kts | 20° |
| 2026-04-30 14:12 | 43.65090 | -4.40280 | 39071 ft | 479 kts | 20° |
| 2026-04-30 14:13 | 43.71174 | -4.36593 | 39078 ft | 478 kts | 20° |
| 2026-04-30 14:13 | 43.77235 | -4.32911 | 39072 ft | 478 kts | 20° |
| 2026-04-30 14:14 | 43.83307 | -4.29216 | 39078 ft | 478 kts | 20° |
| 2026-04-30 14:14 | 43.89389 | -4.25508 | 39079 ft | 477 kts | 20° |
| 2026-04-30 14:15 | 43.95455 | -4.21800 | 39083 ft | 477 kts | 20° |
| 2026-04-30 14:15 | 44.01534 | -4.18076 | 39079 ft | 477 kts | 20° |
| 2026-04-30 14:16 | 44.07577 | -4.14362 | 39080 ft | 476 kts | 20° |
| 2026-04-30 14:16 | 44.13665 | -4.10618 | 39079 ft | 475 kts | 20° |
| 2026-04-30 14:17 | 44.19703 | -4.06895 | 39085 ft | 475 kts | 20° |
| 2026-04-30 14:17 | 44.25702 | -4.03190 | 39092 ft | 474 kts | 21° |
| 2026-04-30 14:18 | 44.31667 | -3.99264 | 39091 ft | 476 kts | 25° |
| 2026-04-30 14:18 | 44.40084 | -3.91860 | 39085 ft | 479 kts | 32° |
| 2026-04-30 14:19 | 44.48265 | -3.83917 | 39072 ft | 478 kts | 32° |
| 2026-04-30 14:20 | 44.53743 | -3.78599 | 39082 ft | 477 kts | 32° |
| 2026-04-30 14:20 | 44.61989 | -3.70592 | 39077 ft | 476 kts | 32° |
| 2026-04-30 14:21 | 44.67436 | -3.65291 | 39072 ft | 475 kts | 32° |
| 2026-04-30 14:22 | 44.75561 | -3.57358 | 39068 ft | 476 kts | 32° |
| 2026-04-30 14:22 | 44.83963 | -3.49125 | 39077 ft | 476 kts | 32° |
| 2026-04-30 14:23 | 44.94803 | -3.38462 | 39080 ft | 475 kts | 32° |
| 2026-04-30 14:24 | 45.02941 | -3.30421 | 39076 ft | 475 kts | 33° |
| 2026-04-30 14:25 | 45.13727 | -3.19724 | 39077 ft | 473 kts | 33° |
| 2026-04-30 14:26 | 45.21818 | -3.11667 | 39092 ft | 474 kts | 33° |
| 2026-04-30 14:27 | 45.29927 | -3.03566 | 39075 ft | 473 kts | 34° |
| 2026-04-30 14:27 | 45.35251 | -2.98164 | 39079 ft | 473 kts | 34° |
| 2026-04-30 14:28 | 45.43233 | -2.89902 | 39081 ft | 472 kts | 34° |
| 2026-04-30 14:28 | 45.48526 | -2.84423 | 39086 ft | 472 kts | 35° |
| 2026-04-30 14:29 | 45.59108 | -2.73437 | 39087 ft | 472 kts | 35° |
| 2026-04-30 14:31 | 45.72317 | -2.59652 | 39082 ft | 471 kts | 35° |
| 2026-04-30 14:31 | 45.80221 | -2.51369 | 39083 ft | 472 kts | 35° |
| 2026-04-30 14:32 | 45.88127 | -2.43052 | 39078 ft | 471 kts | 35° |
| 2026-04-30 14:33 | 45.93388 | -2.37499 | 39085 ft | 471 kts | 35° |
| 2026-04-30 14:33 | 46.01497 | -2.29558 | 39087 ft | 470 kts | 28° |
| 2026-04-30 14:34 | 46.07421 | -2.25579 | 39089 ft | 469 kts | 19° |
| 2026-04-30 14:34 | 46.13658 | -2.22903 | 39084 ft | 469 kts | 11° |
| 2026-04-30 14:35 | 46.23307 | -2.20473 | 39077 ft | 469 kts | 8° |
| 2026-04-30 14:36 | 46.29726 | -2.18934 | 39081 ft | 469 kts | 9° |
| 2026-04-30 14:36 | 46.36124 | -2.17381 | 39082 ft | 469 kts | 9° |
| 2026-04-30 14:37 | 46.42562 | -2.15810 | 39088 ft | 469 kts | 9° |
| 2026-04-30 14:37 | 46.48990 | -2.14229 | 39076 ft | 470 kts | 9° |
| 2026-04-30 14:38 | 46.55410 | -2.12642 | 39074 ft | 469 kts | 9° |
| 2026-04-30 14:38 | 46.61844 | -2.11053 | 39072 ft | 470 kts | 9° |
| 2026-04-30 14:39 | 46.68269 | -2.09462 | 39073 ft | 471 kts | 9° |
| 2026-04-30 14:39 | 46.74726 | -2.07860 | 39074 ft | 470 kts | 9° |
| 2026-04-30 14:40 | 46.84354 | -2.05466 | 39065 ft | 470 kts | 9° |
| 2026-04-30 14:40 | 46.90813 | -2.03818 | 39068 ft | 470 kts | 13° |
| 2026-04-30 14:41 | 46.96923 | -2.00499 | 39068 ft | 471 kts | 29° |
| 2026-04-30 14:41 | 47.02148 | -1.94880 | 39070 ft | 469 kts | 45° |
| 2026-04-30 14:42 | 47.06138 | -1.87391 | 39077 ft | 467 kts | 59° |
| 2026-04-30 14:42 | 47.09321 | -1.79095 | 39073 ft | 466 kts | 61° |
| 2026-04-30 14:43 | 47.12446 | -1.70796 | 39077 ft | 465 kts | 61° |
| 2026-04-30 14:43 | 47.15656 | -1.62584 | 39079 ft | 465 kts | 58° |
| 2026-04-30 14:44 | 47.19307 | -1.54792 | 39077 ft | 463 kts | 54° |
| 2026-04-30 14:44 | 47.23120 | -1.47145 | 39078 ft | 462 kts | 54° |
| 2026-04-30 14:45 | 47.26917 | -1.39534 | 39072 ft | 463 kts | 54° |
| 2026-04-30 14:45 | 47.30710 | -1.31910 | 39076 ft | 463 kts | 55° |
| 2026-04-30 14:46 | 47.34488 | -1.24265 | 39069 ft | 463 kts | 54° |
| 2026-04-30 14:46 | 47.38242 | -1.16675 | 39083 ft | 462 kts | 54° |
| 2026-04-30 14:47 | 47.42008 | -1.09030 | 39071 ft | 460 kts | 54° |
| 2026-04-30 14:47 | 47.45741 | -1.01424 | 39081 ft | 459 kts | 54° |
| 2026-04-30 14:48 | 47.49461 | -0.93805 | 39073 ft | 459 kts | 56° |
| 2026-04-30 14:48 | 47.52814 | -0.85754 | 39073 ft | 459 kts | 62° |
| 2026-04-30 14:49 | 47.55547 | -0.77276 | 39077 ft | 460 kts | 68° |
| 2026-04-30 14:49 | 47.57791 | -0.68453 | 39073 ft | 459 kts | 70° |
| 2026-04-30 14:50 | 47.61020 | -0.55176 | 39079 ft | 459 kts | 70° |
| 2026-04-30 14:51 | 47.64224 | -0.41832 | 39076 ft | 459 kts | 70° |
| 2026-04-30 14:52 | 47.67410 | -0.28515 | 39081 ft | 458 kts | 71° |